<?xml version="1.0" encoding="UTF-8" standalone="no" ?>
<gpx xmlns="http://www.topografix.com/GPX/1/1" xmlns:xsi="http://www.w3.org/2001/XMLSchema-instance" xsi:schemaLocation="http://www.topografix.com/GPX/1/1 http://www.topografix.com/GPX/1/1/gpx.xsd" version="1.1" creator="VisuGPX - https://www.visugpx.com">
  <metadata>
    <name>Trace-Gps-gr10 cauterets ++</name>
  </metadata>
  <wpt lat="42.81286" lon="-0.13793">
    <ele>1949</ele>
    <name><![CDATA[Cascade-Esplumouse-1949m]]></name>
    <desc><![CDATA[Cascade-Esplumouse-1949m]]></desc>
    <cmt><![CDATA[Cascade-Esplumouse-1949m]]></cmt>
  </wpt>
  <wpt lat="42.77902" lon="-0.13142">
    <ele>2734</ele>
    <name><![CDATA[Hourquette-d-Ossoue-2734m]]></name>
    <desc><![CDATA[Hourquette-d-Ossoue-2734m]]></desc>
    <cmt><![CDATA[Hourquette-d-Ossoue-2734m]]></cmt>
  </wpt>
  <wpt lat="42.83213" lon="-0.13978">
    <ele>1725</ele>
    <name><![CDATA[Lac-de-Gaube-1725m]]></name>
    <desc><![CDATA[Lac-de-Gaube-1725m]]></desc>
    <cmt><![CDATA[Lac-de-Gaube-1725m]]></cmt>
  </wpt>
  <wpt lat="42.8516" lon="-0.13605">
    <ele>1459</ele>
    <name><![CDATA[Plateau-des-Pountas-1459m]]></name>
    <desc><![CDATA[Plateau-des-Pountas-1459m



27-MAI-15 10:22:27]]></desc>
    <cmt><![CDATA[Plateau-des-Pountas-1459m



27-MAI-15 10:22:27]]></cmt>
  </wpt>
  <wpt lat="42.77929" lon="-0.12435">
    <ele>2651</ele>
    <name><![CDATA[Refuge-de-Bayssellance-2651m]]></name>
    <desc><![CDATA[Refuge-de-Bayssellance-2651m



27-MAI-15 18:59:25]]></desc>
    <cmt><![CDATA[Refuge-de-Bayssellance-2651m



27-MAI-15 18:59:25]]></cmt>
  </wpt>
  <wpt lat="42.79295" lon="-0.14123">
    <ele>2151</ele>
    <name><![CDATA[Refuge-des-Oulettes-de-Gaube-2151m]]></name>
    <desc><![CDATA[Refuge-des-Oulettes-de-Gaube-2151m]]></desc>
    <cmt><![CDATA[Refuge-des-Oulettes-de-Gaube-2151m]]></cmt>
  </wpt>
  <trk>
    <name><![CDATA[Trace-Gps-Ref]]></name>
    <trkseg>
      <trkpt lat="42.8516" lon="-0.13605">
        <ele>1464.7058105469</ele>
        <time>2015-05-27T08:22:13Z</time>
      </trkpt>
      <trkpt lat="42.85177" lon="-0.13625">
        <ele>1466.6284179688</ele>
        <time>2015-05-27T08:28:12Z</time>
      </trkpt>
      <trkpt lat="42.8518" lon="-0.13663">
        <ele>1467.5895996094</ele>
        <time>2015-05-27T08:29:12Z</time>
      </trkpt>
      <trkpt lat="42.85168" lon="-0.13695">
        <ele>1469.9931640625</ele>
        <time>2015-05-27T08:30:01Z</time>
      </trkpt>
      <trkpt lat="42.8516" lon="-0.13732">
        <ele>1471.4350585938</ele>
        <time>2015-05-27T08:31:15Z</time>
      </trkpt>
      <trkpt lat="42.85152" lon="-0.13766">
        <ele>1473.8383789062</ele>
        <time>2015-05-27T08:32:22Z</time>
      </trkpt>
      <trkpt lat="42.85139" lon="-0.13815">
        <ele>1477.203125</ele>
        <time>2015-05-27T08:33:05Z</time>
      </trkpt>
      <trkpt lat="42.85121" lon="-0.13847">
        <ele>1481.5288085938</ele>
        <time>2015-05-27T08:33:40Z</time>
      </trkpt>
      <trkpt lat="42.85099" lon="-0.13829">
        <ele>1484.8937988281</ele>
        <time>2015-05-27T08:34:07Z</time>
      </trkpt>
      <trkpt lat="42.85086" lon="-0.13821">
        <ele>1489.7001953125</ele>
        <time>2015-05-27T08:34:49Z</time>
      </trkpt>
      <trkpt lat="42.851" lon="-0.13856">
        <ele>1494.5065917969</ele>
        <time>2015-05-27T08:35:34Z</time>
      </trkpt>
      <trkpt lat="42.85082" lon="-0.1389">
        <ele>1497.390625</ele>
        <time>2015-05-27T08:36:02Z</time>
      </trkpt>
      <trkpt lat="42.85069" lon="-0.13888">
        <ele>1501.716796875</ele>
        <time>2015-05-27T08:36:38Z</time>
      </trkpt>
      <trkpt lat="42.85044" lon="-0.13898">
        <ele>1509.4072265625</ele>
        <time>2015-05-27T08:37:23Z</time>
      </trkpt>
      <trkpt lat="42.85036" lon="-0.13913">
        <ele>1519.5012207031</ele>
        <time>2015-05-27T08:38:50Z</time>
      </trkpt>
      <trkpt lat="42.8502" lon="-0.13894">
        <ele>1524.7883300781</ele>
        <time>2015-05-27T08:39:40Z</time>
      </trkpt>
      <trkpt lat="42.85021" lon="-0.13854">
        <ele>1530.0754394531</ele>
        <time>2015-05-27T08:40:28Z</time>
      </trkpt>
      <trkpt lat="42.85026" lon="-0.13862">
        <ele>1537.7661132812</ele>
        <time>2015-05-27T08:41:27Z</time>
      </trkpt>
      <trkpt lat="42.85" lon="-0.13875">
        <ele>1542.0920410156</ele>
        <time>2015-05-27T08:42:07Z</time>
      </trkpt>
      <trkpt lat="42.8498" lon="-0.13841">
        <ele>1549.7827148438</ele>
        <time>2015-05-27T08:43:08Z</time>
      </trkpt>
      <trkpt lat="42.84952" lon="-0.13848">
        <ele>1559.8762207031</ele>
        <time>2015-05-27T08:44:39Z</time>
      </trkpt>
      <trkpt lat="42.84924" lon="-0.13869">
        <ele>1571.412109375</ele>
        <time>2015-05-27T08:45:48Z</time>
      </trkpt>
      <trkpt lat="42.84906" lon="-0.13876">
        <ele>1581.5061035156</ele>
        <time>2015-05-27T08:47:46Z</time>
      </trkpt>
      <trkpt lat="42.84896" lon="-0.13881">
        <ele>1583.4287109375</ele>
        <time>2015-05-27T08:49:16Z</time>
      </trkpt>
      <trkpt lat="42.84866" lon="-0.13875">
        <ele>1591.119140625</ele>
        <time>2015-05-27T08:49:56Z</time>
      </trkpt>
      <trkpt lat="42.84837" lon="-0.13863">
        <ele>1598.8098144531</ele>
        <time>2015-05-27T08:50:55Z</time>
      </trkpt>
      <trkpt lat="42.84809" lon="-0.13852">
        <ele>1607.4616699219</ele>
        <time>2015-05-27T08:51:59Z</time>
      </trkpt>
      <trkpt lat="42.84778" lon="-0.13849">
        <ele>1611.7875976562</ele>
        <time>2015-05-27T08:53:03Z</time>
      </trkpt>
      <trkpt lat="42.8475" lon="-0.13846">
        <ele>1614.6716308594</ele>
        <time>2015-05-27T08:53:42Z</time>
      </trkpt>
      <trkpt lat="42.84724" lon="-0.13858">
        <ele>1615.6330566406</ele>
        <time>2015-05-27T08:54:14Z</time>
      </trkpt>
      <trkpt lat="42.84694" lon="-0.13863">
        <ele>1618.9975585938</ele>
        <time>2015-05-27T08:54:53Z</time>
      </trkpt>
      <trkpt lat="42.84671" lon="-0.13858">
        <ele>1631.0141601562</ele>
        <time>2015-05-27T08:56:12Z</time>
      </trkpt>
      <trkpt lat="42.84653" lon="-0.13872">
        <ele>1640.626953125</ele>
        <time>2015-05-27T08:57:31Z</time>
      </trkpt>
      <trkpt lat="42.84608" lon="-0.13875">
        <ele>1644.953125</ele>
        <time>2015-05-27T08:58:21Z</time>
      </trkpt>
      <trkpt lat="42.84577" lon="-0.13871">
        <ele>1657.9309082031</ele>
        <time>2015-05-27T09:00:16Z</time>
      </trkpt>
      <trkpt lat="42.84546" lon="-0.13889">
        <ele>1657.9309082031</ele>
        <time>2015-05-27T09:00:51Z</time>
      </trkpt>
      <trkpt lat="42.84511" lon="-0.13898">
        <ele>1659.3728027344</ele>
        <time>2015-05-27T09:01:29Z</time>
      </trkpt>
      <trkpt lat="42.84481" lon="-0.13898">
        <ele>1662.2568359375</ele>
        <time>2015-05-27T09:02:10Z</time>
      </trkpt>
      <trkpt lat="42.84454" lon="-0.13894">
        <ele>1667.0634765625</ele>
        <time>2015-05-27T09:02:54Z</time>
      </trkpt>
      <trkpt lat="42.84428" lon="-0.13886">
        <ele>1673.3120117188</ele>
        <time>2015-05-27T09:03:40Z</time>
      </trkpt>
      <trkpt lat="42.84398" lon="-0.13883">
        <ele>1678.1186523438</ele>
        <time>2015-05-27T09:04:39Z</time>
      </trkpt>
      <trkpt lat="42.84365" lon="-0.13882">
        <ele>1682.9250488281</ele>
        <time>2015-05-27T09:05:26Z</time>
      </trkpt>
      <trkpt lat="42.84329" lon="-0.13884">
        <ele>1683.4057617188</ele>
        <time>2015-05-27T09:06:12Z</time>
      </trkpt>
      <trkpt lat="42.843" lon="-0.13885">
        <ele>1684.8479003906</ele>
        <time>2015-05-27T09:06:49Z</time>
      </trkpt>
      <trkpt lat="42.84269" lon="-0.1388">
        <ele>1690.1350097656</ele>
        <time>2015-05-27T09:07:32Z</time>
      </trkpt>
      <trkpt lat="42.8426" lon="-0.13912">
        <ele>1691.5769042969</ele>
        <time>2015-05-27T09:08:23Z</time>
      </trkpt>
      <trkpt lat="42.84229" lon="-0.13914">
        <ele>1691.0961914062</ele>
        <time>2015-05-27T09:08:56Z</time>
      </trkpt>
      <trkpt lat="42.84202" lon="-0.13924">
        <ele>1693.98046875</ele>
        <time>2015-05-27T09:09:41Z</time>
      </trkpt>
      <trkpt lat="42.84169" lon="-0.13906">
        <ele>1694.9416503906</ele>
        <time>2015-05-27T09:10:26Z</time>
      </trkpt>
      <trkpt lat="42.84137" lon="-0.13898">
        <ele>1696.8642578125</ele>
        <time>2015-05-27T09:11:17Z</time>
      </trkpt>
      <trkpt lat="42.84114" lon="-0.13878">
        <ele>1701.6708984375</ele>
        <time>2015-05-27T09:12:07Z</time>
      </trkpt>
      <trkpt lat="42.84088" lon="-0.13853">
        <ele>1711.2841796875</ele>
        <time>2015-05-27T09:13:13Z</time>
      </trkpt>
      <trkpt lat="42.84052" lon="-0.13847">
        <ele>1708.4001464844</ele>
        <time>2015-05-27T09:14:26Z</time>
      </trkpt>
      <trkpt lat="42.84021" lon="-0.13852">
        <ele>1700.2290039062</ele>
        <time>2015-05-27T09:15:13Z</time>
      </trkpt>
      <trkpt lat="42.83981" lon="-0.13866">
        <ele>1699.7482910156</ele>
        <time>2015-05-27T09:16:00Z</time>
      </trkpt>
      <trkpt lat="42.83951" lon="-0.13871">
        <ele>1705.0354003906</ele>
        <time>2015-05-27T09:16:46Z</time>
      </trkpt>
      <trkpt lat="42.83924" lon="-0.13881">
        <ele>1704.07421875</ele>
        <time>2015-05-27T09:17:33Z</time>
      </trkpt>
      <trkpt lat="42.83883" lon="-0.13887">
        <ele>1705.0354003906</ele>
        <time>2015-05-27T09:18:15Z</time>
      </trkpt>
      <trkpt lat="42.83853" lon="-0.13877">
        <ele>1710.3227539062</ele>
        <time>2015-05-27T09:19:18Z</time>
      </trkpt>
      <trkpt lat="42.83815" lon="-0.13865">
        <ele>1715.6101074219</ele>
        <time>2015-05-27T09:20:07Z</time>
      </trkpt>
      <trkpt lat="42.83786" lon="-0.13845">
        <ele>1717.0520019531</ele>
        <time>2015-05-27T09:20:52Z</time>
      </trkpt>
      <trkpt lat="42.83747" lon="-0.13835">
        <ele>1722.3391113281</ele>
        <time>2015-05-27T09:21:54Z</time>
      </trkpt>
      <trkpt lat="42.83711" lon="-0.13836">
        <ele>1726.1845703125</ele>
        <time>2015-05-27T09:22:44Z</time>
      </trkpt>
      <trkpt lat="42.83673" lon="-0.13836">
        <ele>1728.1071777344</ele>
        <time>2015-05-27T09:23:49Z</time>
      </trkpt>
      <trkpt lat="42.83634" lon="-0.13851">
        <ele>1731.4716796875</ele>
        <time>2015-05-27T09:24:42Z</time>
      </trkpt>
      <trkpt lat="42.836" lon="-0.1387">
        <ele>1732.9135742188</ele>
        <time>2015-05-27T09:25:28Z</time>
      </trkpt>
      <trkpt lat="42.83565" lon="-0.13869">
        <ele>1734.3557128906</ele>
        <time>2015-05-27T09:26:27Z</time>
      </trkpt>
      <trkpt lat="42.83527" lon="-0.13878">
        <ele>1734.8364257812</ele>
        <time>2015-05-27T09:27:03Z</time>
      </trkpt>
      <trkpt lat="42.83501" lon="-0.13895">
        <ele>1735.7976074219</ele>
        <time>2015-05-27T09:27:37Z</time>
      </trkpt>
      <trkpt lat="42.83468" lon="-0.13917">
        <ele>1740.1237792969</ele>
        <time>2015-05-27T09:28:17Z</time>
      </trkpt>
      <trkpt lat="42.83476" lon="-0.13959">
        <ele>1739.6428222656</ele>
        <time>2015-05-27T09:29:16Z</time>
      </trkpt>
      <trkpt lat="42.8348" lon="-0.13983">
        <ele>1741.0849609375</ele>
        <time>2015-05-27T09:30:01Z</time>
      </trkpt>
      <trkpt lat="42.83503" lon="-0.14009">
        <ele>1738.2009277344</ele>
        <time>2015-05-27T09:30:24Z</time>
      </trkpt>
      <trkpt lat="42.83514" lon="-0.14035">
        <ele>1735.7976074219</ele>
        <time>2015-05-27T09:30:52Z</time>
      </trkpt>
      <trkpt lat="42.83516" lon="-0.14068">
        <ele>1736.7587890625</ele>
        <time>2015-05-27T09:31:40Z</time>
      </trkpt>
      <trkpt lat="42.83505" lon="-0.14104">
        <ele>1737.7202148438</ele>
        <time>2015-05-27T09:32:05Z</time>
      </trkpt>
      <trkpt lat="42.83476" lon="-0.14137">
        <ele>1739.6428222656</ele>
        <time>2015-05-27T09:32:43Z</time>
      </trkpt>
      <trkpt lat="42.83449" lon="-0.14156">
        <ele>1739.6428222656</ele>
        <time>2015-05-27T09:33:09Z</time>
      </trkpt>
      <trkpt lat="42.83416" lon="-0.14165">
        <ele>1739.162109375</ele>
        <time>2015-05-27T09:33:43Z</time>
      </trkpt>
      <trkpt lat="42.83385" lon="-0.14183">
        <ele>1738.2009277344</ele>
        <time>2015-05-27T09:34:23Z</time>
      </trkpt>
      <trkpt lat="42.83338" lon="-0.14179">
        <ele>1738.2009277344</ele>
        <time>2015-05-27T09:35:13Z</time>
      </trkpt>
      <trkpt lat="42.83311" lon="-0.1417">
        <ele>1737.7202148438</ele>
        <time>2015-05-27T09:35:46Z</time>
      </trkpt>
      <trkpt lat="42.83259" lon="-0.14173">
        <ele>1739.162109375</ele>
        <time>2015-05-27T09:37:04Z</time>
      </trkpt>
      <trkpt lat="42.83224" lon="-0.14163">
        <ele>1740.1237792969</ele>
        <time>2015-05-27T09:37:40Z</time>
      </trkpt>
      <trkpt lat="42.8319" lon="-0.14158">
        <ele>1743.0075683594</ele>
        <time>2015-05-27T09:38:34Z</time>
      </trkpt>
      <trkpt lat="42.83159" lon="-0.14172">
        <ele>1743.9689941406</ele>
        <time>2015-05-27T09:39:07Z</time>
      </trkpt>
      <trkpt lat="42.83117" lon="-0.14186">
        <ele>1743.48828125</ele>
        <time>2015-05-27T09:40:32Z</time>
      </trkpt>
      <trkpt lat="42.83086" lon="-0.14186">
        <ele>1742.0463867188</ele>
        <time>2015-05-27T09:41:06Z</time>
      </trkpt>
      <trkpt lat="42.83053" lon="-0.14187">
        <ele>1742.0463867188</ele>
        <time>2015-05-27T09:41:36Z</time>
      </trkpt>
      <trkpt lat="42.83019" lon="-0.14174">
        <ele>1743.48828125</ele>
        <time>2015-05-27T09:42:12Z</time>
      </trkpt>
      <trkpt lat="42.82992" lon="-0.14165">
        <ele>1741.5656738281</ele>
        <time>2015-05-27T09:42:32Z</time>
      </trkpt>
      <trkpt lat="42.82962" lon="-0.1415">
        <ele>1741.0849609375</ele>
        <time>2015-05-27T09:43:10Z</time>
      </trkpt>
      <trkpt lat="42.82916" lon="-0.14125">
        <ele>1740.1237792969</ele>
        <time>2015-05-27T09:44:16Z</time>
      </trkpt>
      <trkpt lat="42.82891" lon="-0.14112">
        <ele>1739.6428222656</ele>
        <time>2015-05-27T09:44:53Z</time>
      </trkpt>
      <trkpt lat="42.8286" lon="-0.14094">
        <ele>1739.162109375</ele>
        <time>2015-05-27T09:45:30Z</time>
      </trkpt>
      <trkpt lat="42.82831" lon="-0.14064">
        <ele>1736.2783203125</ele>
        <time>2015-05-27T09:46:29Z</time>
      </trkpt>
      <trkpt lat="42.82802" lon="-0.14037">
        <ele>1737.2395019531</ele>
        <time>2015-05-27T09:47:19Z</time>
      </trkpt>
      <trkpt lat="42.82775" lon="-0.14029">
        <ele>1736.2783203125</ele>
        <time>2015-05-27T09:47:48Z</time>
      </trkpt>
      <trkpt lat="42.82779" lon="-0.1399">
        <ele>1735.7976074219</ele>
        <time>2015-05-27T09:48:27Z</time>
      </trkpt>
      <trkpt lat="42.8278" lon="-0.13987">
        <ele>1736.2783203125</ele>
        <time>2015-05-27T09:48:54Z</time>
      </trkpt>
      <trkpt lat="42.82738" lon="-0.13995">
        <ele>1737.2395019531</ele>
        <time>2015-05-27T09:49:35Z</time>
      </trkpt>
      <trkpt lat="42.82708" lon="-0.13987">
        <ele>1739.162109375</ele>
        <time>2015-05-27T09:50:07Z</time>
      </trkpt>
      <trkpt lat="42.82686" lon="-0.14008">
        <ele>1739.162109375</ele>
        <time>2015-05-27T09:50:38Z</time>
      </trkpt>
      <trkpt lat="42.82654" lon="-0.14003">
        <ele>1741.5656738281</ele>
        <time>2015-05-27T09:51:16Z</time>
      </trkpt>
      <trkpt lat="42.82623" lon="-0.14">
        <ele>1742.5270996094</ele>
        <time>2015-05-27T09:52:12Z</time>
      </trkpt>
      <trkpt lat="42.82587" lon="-0.14004">
        <ele>1746.8527832031</ele>
        <time>2015-05-27T09:52:57Z</time>
      </trkpt>
      <trkpt lat="42.82507" lon="-0.13984">
        <ele>1754.0627441406</ele>
        <time>2015-05-27T09:55:22Z</time>
      </trkpt>
      <trkpt lat="42.8246" lon="-0.13962">
        <ele>1759.3500976562</ele>
        <time>2015-05-27T09:56:40Z</time>
      </trkpt>
      <trkpt lat="42.82412" lon="-0.13925">
        <ele>1768.9631347656</ele>
        <time>2015-05-27T09:58:34Z</time>
      </trkpt>
      <trkpt lat="42.8236" lon="-0.1387">
        <ele>1771.3662109375</ele>
        <time>2015-05-27T10:00:27Z</time>
      </trkpt>
      <trkpt lat="42.82315" lon="-0.13825">
        <ele>1792.515625</ele>
        <time>2015-05-27T10:05:00Z</time>
      </trkpt>
      <trkpt lat="42.82276" lon="-0.13742">
        <ele>1797.802734375</ele>
        <time>2015-05-27T10:11:45Z</time>
      </trkpt>
      <trkpt lat="42.82248" lon="-0.13747">
        <ele>1799.2446289062</ele>
        <time>2015-05-27T10:12:10Z</time>
      </trkpt>
      <trkpt lat="42.8216" lon="-0.13736">
        <ele>1800.2060546875</ele>
        <time>2015-05-27T10:14:00Z</time>
      </trkpt>
      <trkpt lat="42.82121" lon="-0.13724">
        <ele>1806.9353027344</ele>
        <time>2015-05-27T10:14:48Z</time>
      </trkpt>
      <trkpt lat="42.82091" lon="-0.13735">
        <ele>1809.8190917969</ele>
        <time>2015-05-27T10:15:29Z</time>
      </trkpt>
      <trkpt lat="42.82078" lon="-0.13711">
        <ele>1817.990234375</ele>
        <time>2015-05-27T10:16:28Z</time>
      </trkpt>
      <trkpt lat="42.82016" lon="-0.13728">
        <ele>1818.4709472656</ele>
        <time>2015-05-27T10:18:05Z</time>
      </trkpt>
      <trkpt lat="42.81944" lon="-0.13757">
        <ele>1831.9294433594</ele>
        <time>2015-05-27T10:20:25Z</time>
      </trkpt>
      <trkpt lat="42.81905" lon="-0.13729">
        <ele>1840.1008300781</ele>
        <time>2015-05-27T10:22:22Z</time>
      </trkpt>
      <trkpt lat="42.81888" lon="-0.13757">
        <ele>1842.0234375</ele>
        <time>2015-05-27T10:22:55Z</time>
      </trkpt>
      <trkpt lat="42.81845" lon="-0.13784">
        <ele>1845.8686523438</ele>
        <time>2015-05-27T10:24:04Z</time>
      </trkpt>
      <trkpt lat="42.81813" lon="-0.13787">
        <ele>1850.1945800781</ele>
        <time>2015-05-27T10:25:18Z</time>
      </trkpt>
      <trkpt lat="42.81791" lon="-0.13782">
        <ele>1852.5979003906</ele>
        <time>2015-05-27T10:26:03Z</time>
      </trkpt>
      <trkpt lat="42.81766" lon="-0.13776">
        <ele>1852.1171875</ele>
        <time>2015-05-27T10:26:51Z</time>
      </trkpt>
      <trkpt lat="42.81738" lon="-0.13755">
        <ele>1855.0012207031</ele>
        <time>2015-05-27T10:27:36Z</time>
      </trkpt>
      <trkpt lat="42.81712" lon="-0.13742">
        <ele>1858.3657226562</ele>
        <time>2015-05-27T10:28:11Z</time>
      </trkpt>
      <trkpt lat="42.81684" lon="-0.13735">
        <ele>1865.0949707031</ele>
        <time>2015-05-27T10:28:52Z</time>
      </trkpt>
      <trkpt lat="42.81647" lon="-0.13734">
        <ele>1873.7468261719</ele>
        <time>2015-05-27T10:29:50Z</time>
      </trkpt>
      <trkpt lat="42.81613" lon="-0.13713">
        <ele>1883.3598632812</ele>
        <time>2015-05-27T10:32:33Z</time>
      </trkpt>
      <trkpt lat="42.81588" lon="-0.13741">
        <ele>1890.5698242188</ele>
        <time>2015-05-27T10:33:44Z</time>
      </trkpt>
      <trkpt lat="42.81562" lon="-0.13764">
        <ele>1893.4538574219</ele>
        <time>2015-05-27T10:34:27Z</time>
      </trkpt>
      <trkpt lat="42.81538" lon="-0.1374">
        <ele>1900.1833496094</ele>
        <time>2015-05-27T10:35:29Z</time>
      </trkpt>
      <trkpt lat="42.81512" lon="-0.13719">
        <ele>1903.0671386719</ele>
        <time>2015-05-27T10:36:31Z</time>
      </trkpt>
      <trkpt lat="42.81487" lon="-0.13705">
        <ele>1909.7961425781</ele>
        <time>2015-05-27T10:37:34Z</time>
      </trkpt>
      <trkpt lat="42.81459" lon="-0.13694">
        <ele>1916.5256347656</ele>
        <time>2015-05-27T10:38:45Z</time>
      </trkpt>
      <trkpt lat="42.81446" lon="-0.13696">
        <ele>1926.6193847656</ele>
        <time>2015-05-27T10:41:33Z</time>
      </trkpt>
      <trkpt lat="42.81413" lon="-0.13703">
        <ele>1936.2326660156</ele>
        <time>2015-05-27T10:43:20Z</time>
      </trkpt>
      <trkpt lat="42.81397" lon="-0.13725">
        <ele>1941.5197753906</ele>
        <time>2015-05-27T10:49:54Z</time>
      </trkpt>
      <trkpt lat="42.81365" lon="-0.13751">
        <ele>1946.3264160156</ele>
        <time>2015-05-27T10:50:37Z</time>
      </trkpt>
      <trkpt lat="42.81334" lon="-0.13786">
        <ele>1948.7297363281</ele>
        <time>2015-05-27T10:51:19Z</time>
      </trkpt>
      <trkpt lat="42.8131" lon="-0.13776">
        <ele>1951.6137695312</ele>
        <time>2015-05-27T10:51:56Z</time>
      </trkpt>
      <trkpt lat="42.81285" lon="-0.13792">
        <ele>1949.2104492188</ele>
        <time>2015-05-27T10:52:25Z</time>
      </trkpt>
      <trkpt lat="42.81259" lon="-0.13774">
        <ele>1952.0942382812</ele>
        <time>2015-05-27T10:53:28Z</time>
      </trkpt>
      <trkpt lat="42.81236" lon="-0.13763">
        <ele>1952.0942382812</ele>
        <time>2015-05-27T10:53:58Z</time>
      </trkpt>
      <trkpt lat="42.8121" lon="-0.1377">
        <ele>1953.0556640625</ele>
        <time>2015-05-27T10:54:37Z</time>
      </trkpt>
      <trkpt lat="42.81179" lon="-0.13774">
        <ele>1956.4201660156</ele>
        <time>2015-05-27T10:55:12Z</time>
      </trkpt>
      <trkpt lat="42.81149" lon="-0.13767">
        <ele>1955.939453125</ele>
        <time>2015-05-27T10:55:39Z</time>
      </trkpt>
      <trkpt lat="42.81113" lon="-0.13773">
        <ele>1966.5141601562</ele>
        <time>2015-05-27T10:57:04Z</time>
      </trkpt>
      <trkpt lat="42.81092" lon="-0.13797">
        <ele>1974.2045898438</ele>
        <time>2015-05-27T10:58:18Z</time>
      </trkpt>
      <trkpt lat="42.81064" lon="-0.13825">
        <ele>1978.5305175781</ele>
        <time>2015-05-27T10:59:28Z</time>
      </trkpt>
      <trkpt lat="42.81037" lon="-0.13815">
        <ele>1976.6079101562</ele>
        <time>2015-05-27T11:00:08Z</time>
      </trkpt>
      <trkpt lat="42.8101" lon="-0.13803">
        <ele>1976.6079101562</ele>
        <time>2015-05-27T11:00:39Z</time>
      </trkpt>
      <trkpt lat="42.80989" lon="-0.13782">
        <ele>1977.5690917969</ele>
        <time>2015-05-27T11:01:13Z</time>
      </trkpt>
      <trkpt lat="42.80967" lon="-0.13749">
        <ele>1981.8952636719</ele>
        <time>2015-05-27T11:01:56Z</time>
      </trkpt>
      <trkpt lat="42.80953" lon="-0.13721">
        <ele>1981.8952636719</ele>
        <time>2015-05-27T11:02:25Z</time>
      </trkpt>
      <trkpt lat="42.80921" lon="-0.13691">
        <ele>1985.7404785156</ele>
        <time>2015-05-27T11:03:11Z</time>
      </trkpt>
      <trkpt lat="42.80922" lon="-0.13675">
        <ele>1988.1437988281</ele>
        <time>2015-05-27T11:04:45Z</time>
      </trkpt>
      <trkpt lat="42.80896" lon="-0.13641">
        <ele>1991.0275878906</ele>
        <time>2015-05-27T11:06:46Z</time>
      </trkpt>
      <trkpt lat="42.80877" lon="-0.13684">
        <ele>1990.06640625</ele>
        <time>2015-05-27T11:07:40Z</time>
      </trkpt>
      <trkpt lat="42.80788" lon="-0.13671">
        <ele>1991.9890136719</ele>
        <time>2015-05-27T11:09:17Z</time>
      </trkpt>
      <trkpt lat="42.80759" lon="-0.13682">
        <ele>1992.9501953125</ele>
        <time>2015-05-27T11:09:51Z</time>
      </trkpt>
      <trkpt lat="42.80725" lon="-0.13667">
        <ele>1991.0275878906</ele>
        <time>2015-05-27T11:10:31Z</time>
      </trkpt>
      <trkpt lat="42.80688" lon="-0.13667">
        <ele>1992.9501953125</ele>
        <time>2015-05-27T11:11:09Z</time>
      </trkpt>
      <trkpt lat="42.80654" lon="-0.13698">
        <ele>1997.7570800781</ele>
        <time>2015-05-27T11:12:07Z</time>
      </trkpt>
      <trkpt lat="42.80618" lon="-0.1375">
        <ele>2004.0056152344</ele>
        <time>2015-05-27T11:13:26Z</time>
      </trkpt>
      <trkpt lat="42.80595" lon="-0.13782">
        <ele>2010.7346191406</ele>
        <time>2015-05-27T11:14:21Z</time>
      </trkpt>
      <trkpt lat="42.80565" lon="-0.13765">
        <ele>2014.580078125</ele>
        <time>2015-05-27T11:15:12Z</time>
      </trkpt>
      <trkpt lat="42.8053" lon="-0.1375">
        <ele>2024.673828125</ele>
        <time>2015-05-27T11:16:17Z</time>
      </trkpt>
      <trkpt lat="42.80488" lon="-0.13763">
        <ele>2030.4418945312</ele>
        <time>2015-05-27T11:17:24Z</time>
      </trkpt>
      <trkpt lat="42.80451" lon="-0.13767">
        <ele>2040.5354003906</ele>
        <time>2015-05-27T11:18:38Z</time>
      </trkpt>
      <trkpt lat="42.80413" lon="-0.13785">
        <ele>2043.4194335938</ele>
        <time>2015-05-27T11:19:34Z</time>
      </trkpt>
      <trkpt lat="42.80378" lon="-0.13816">
        <ele>2050.6293945312</ele>
        <time>2015-05-27T11:20:13Z</time>
      </trkpt>
      <trkpt lat="42.8035" lon="-0.13831">
        <ele>2053.5134277344</ele>
        <time>2015-05-27T11:20:53Z</time>
      </trkpt>
      <trkpt lat="42.80309" lon="-0.13851">
        <ele>2053.5134277344</ele>
        <time>2015-05-27T11:21:45Z</time>
      </trkpt>
      <trkpt lat="42.8028" lon="-0.13882">
        <ele>2053.994140625</ele>
        <time>2015-05-27T11:22:19Z</time>
      </trkpt>
      <trkpt lat="42.80079" lon="-0.13925">
        <ele>2056.8779296875</ele>
        <time>2015-05-27T11:28:49Z</time>
      </trkpt>
      <trkpt lat="42.80012" lon="-0.1395">
        <ele>2057.8393554688</ele>
        <time>2015-05-27T11:29:48Z</time>
      </trkpt>
      <trkpt lat="42.79951" lon="-0.13931">
        <ele>2057.8393554688</ele>
        <time>2015-05-27T11:30:03Z</time>
      </trkpt>
      <trkpt lat="42.79918" lon="-0.13928">
        <ele>2057.8393554688</ele>
        <time>2015-05-27T11:30:20Z</time>
      </trkpt>
      <trkpt lat="42.79892" lon="-0.13934">
        <ele>2059.28125</ele>
        <time>2015-05-27T11:30:40Z</time>
      </trkpt>
      <trkpt lat="42.79862" lon="-0.13941">
        <ele>2060.2426757812</ele>
        <time>2015-05-27T11:31:08Z</time>
      </trkpt>
      <trkpt lat="42.79837" lon="-0.13958">
        <ele>2061.6848144531</ele>
        <time>2015-05-27T11:31:43Z</time>
      </trkpt>
      <trkpt lat="42.79809" lon="-0.13977">
        <ele>2063.6071777344</ele>
        <time>2015-05-27T11:32:23Z</time>
      </trkpt>
      <trkpt lat="42.79782" lon="-0.14001">
        <ele>2066.0104980469</ele>
        <time>2015-05-27T11:32:52Z</time>
      </trkpt>
      <trkpt lat="42.79757" lon="-0.14013">
        <ele>2068.89453125</ele>
        <time>2015-05-27T11:33:23Z</time>
      </trkpt>
      <trkpt lat="42.79726" lon="-0.14028">
        <ele>2069.3752441406</ele>
        <time>2015-05-27T11:33:59Z</time>
      </trkpt>
      <trkpt lat="42.79707" lon="-0.14059">
        <ele>2073.2204589844</ele>
        <time>2015-05-27T11:34:34Z</time>
      </trkpt>
      <trkpt lat="42.79678" lon="-0.14068">
        <ele>2076.1044921875</ele>
        <time>2015-05-27T11:35:04Z</time>
      </trkpt>
      <trkpt lat="42.79649" lon="-0.14074">
        <ele>2078.98828125</ele>
        <time>2015-05-27T11:35:49Z</time>
      </trkpt>
      <trkpt lat="42.79627" lon="-0.14063">
        <ele>2082.3530273438</ele>
        <time>2015-05-27T11:36:15Z</time>
      </trkpt>
      <trkpt lat="42.79615" lon="-0.14095">
        <ele>2087.1594238281</ele>
        <time>2015-05-27T11:36:43Z</time>
      </trkpt>
      <trkpt lat="42.79595" lon="-0.14121">
        <ele>2091.4853515625</ele>
        <time>2015-05-27T11:37:15Z</time>
      </trkpt>
      <trkpt lat="42.79594" lon="-0.14161">
        <ele>2096.2922363281</ele>
        <time>2015-05-27T11:38:11Z</time>
      </trkpt>
      <trkpt lat="42.79579" lon="-0.14163">
        <ele>2100.6179199219</ele>
        <time>2015-05-27T11:38:58Z</time>
      </trkpt>
      <trkpt lat="42.79535" lon="-0.14172">
        <ele>2109.2700195312</ele>
        <time>2015-05-27T11:40:00Z</time>
      </trkpt>
      <trkpt lat="42.79503" lon="-0.14177">
        <ele>2116.9604492188</ele>
        <time>2015-05-27T11:40:58Z</time>
      </trkpt>
      <trkpt lat="42.7947" lon="-0.14198">
        <ele>2123.689453125</ele>
        <time>2015-05-27T11:42:00Z</time>
      </trkpt>
      <trkpt lat="42.79457" lon="-0.14226">
        <ele>2136.6672363281</ele>
        <time>2015-05-27T11:43:22Z</time>
      </trkpt>
      <trkpt lat="42.79483" lon="-0.1422">
        <ele>2140.9934082031</ele>
        <time>2015-05-27T11:44:15Z</time>
      </trkpt>
      <trkpt lat="42.79496" lon="-0.14245">
        <ele>2147.2419433594</ele>
        <time>2015-05-27T11:45:02Z</time>
      </trkpt>
      <trkpt lat="42.79468" lon="-0.14267">
        <ele>2150.1259765625</ele>
        <time>2015-05-27T11:45:41Z</time>
      </trkpt>
      <trkpt lat="42.79436" lon="-0.14263">
        <ele>2150.1259765625</ele>
        <time>2015-05-27T11:46:22Z</time>
      </trkpt>
      <trkpt lat="42.79409" lon="-0.14245">
        <ele>2150.6064453125</ele>
        <time>2015-05-27T11:46:54Z</time>
      </trkpt>
      <trkpt lat="42.79381" lon="-0.14248">
        <ele>2152.5290527344</ele>
        <time>2015-05-27T11:47:26Z</time>
      </trkpt>
      <trkpt lat="42.79358" lon="-0.14236">
        <ele>2146.2807617188</ele>
        <time>2015-05-27T11:48:06Z</time>
      </trkpt>
      <trkpt lat="42.7934" lon="-0.1422">
        <ele>2145.8000488281</ele>
        <time>2015-05-27T11:48:53Z</time>
      </trkpt>
      <trkpt lat="42.79332" lon="-0.14192">
        <ele>2146.7612304688</ele>
        <time>2015-05-27T11:51:29Z</time>
      </trkpt>
      <trkpt lat="42.79301" lon="-0.1418">
        <ele>2147.72265625</ele>
        <time>2015-05-27T11:52:00Z</time>
      </trkpt>
      <trkpt lat="42.79273" lon="-0.14164">
        <ele>2147.2419433594</ele>
        <time>2015-05-27T11:52:37Z</time>
      </trkpt>
      <trkpt lat="42.79284" lon="-0.14141">
        <ele>2153.9711914062</ele>
        <time>2015-05-27T11:53:48Z</time>
      </trkpt>
      <trkpt lat="42.79274" lon="-0.14114">
        <ele>2165.0263671875</ele>
        <time>2015-05-29T11:32:18Z</time>
      </trkpt>
      <trkpt lat="42.79261" lon="-0.14061">
        <ele>2166.9489746094</ele>
        <time>2015-05-29T11:31:47Z</time>
      </trkpt>
      <trkpt lat="42.79241" lon="-0.14028">
        <ele>2170.7941894531</ele>
        <time>2015-05-29T11:31:10Z</time>
      </trkpt>
      <trkpt lat="42.79219" lon="-0.13998">
        <ele>2175.6008300781</ele>
        <time>2015-05-29T11:30:34Z</time>
      </trkpt>
      <trkpt lat="42.79195" lon="-0.13991">
        <ele>2177.04296875</ele>
        <time>2015-05-29T11:27:49Z</time>
      </trkpt>
      <trkpt lat="42.79179" lon="-0.13963">
        <ele>2181.8493652344</ele>
        <time>2015-05-29T11:26:41Z</time>
      </trkpt>
      <trkpt lat="42.7915" lon="-0.13944">
        <ele>2190.0207519531</ele>
        <time>2015-05-29T11:25:43Z</time>
      </trkpt>
      <trkpt lat="42.79121" lon="-0.13912">
        <ele>2199.6337890625</ele>
        <time>2015-05-29T11:24:51Z</time>
      </trkpt>
      <trkpt lat="42.79086" lon="-0.13892">
        <ele>2207.8051757812</ele>
        <time>2015-05-29T11:24:08Z</time>
      </trkpt>
      <trkpt lat="42.79059" lon="-0.1389">
        <ele>2210.6889648438</ele>
        <time>2015-05-29T11:23:17Z</time>
      </trkpt>
      <trkpt lat="42.79027" lon="-0.13896">
        <ele>2211.650390625</ele>
        <time>2015-05-29T11:22:39Z</time>
      </trkpt>
      <trkpt lat="42.79001" lon="-0.13875">
        <ele>2221.744140625</ele>
        <time>2015-05-29T11:19:51Z</time>
      </trkpt>
      <trkpt lat="42.78977" lon="-0.13857">
        <ele>2227.9926757812</ele>
        <time>2015-05-29T11:18:14Z</time>
      </trkpt>
      <trkpt lat="42.78977" lon="-0.13857">
        <ele>2227.9926757812</ele>
        <time>2015-05-29T11:18:14Z</time>
      </trkpt>
      <trkpt lat="42.78967" lon="-0.13849">
        <ele>2236.1640625</ele>
        <time>2015-05-29T11:17:23Z</time>
      </trkpt>
      <trkpt lat="42.78966" lon="-0.13825">
        <ele>2243.3737792969</ele>
        <time>2015-05-29T11:16:32Z</time>
      </trkpt>
      <trkpt lat="42.78939" lon="-0.13807">
        <ele>2246.2578125</ele>
        <time>2015-05-29T11:15:46Z</time>
      </trkpt>
      <trkpt lat="42.78909" lon="-0.13804">
        <ele>2255.8708496094</ele>
        <time>2015-05-29T11:15:00Z</time>
      </trkpt>
      <trkpt lat="42.78882" lon="-0.13805">
        <ele>2261.6389160156</ele>
        <time>2015-05-29T11:12:45Z</time>
      </trkpt>
      <trkpt lat="42.78837" lon="-0.13798">
        <ele>2257.3359375</ele>
      </trkpt>
      <trkpt lat="42.78837" lon="-0.13797">
        <ele>2257.8203125</ele>
      </trkpt>
      <trkpt lat="42.78791" lon="-0.13778">
        <ele>2266.92578125</ele>
      </trkpt>
      <trkpt lat="42.78825" lon="-0.13737">
        <ele>2285.69140625</ele>
      </trkpt>
      <trkpt lat="42.7883" lon="-0.13732">
        <ele>2288</ele>
      </trkpt>
      <trkpt lat="42.78837" lon="-0.13726">
        <ele>2290.92578125</ele>
      </trkpt>
      <trkpt lat="42.78948" lon="-0.13693">
        <ele>2296.73046875</ele>
      </trkpt>
      <trkpt lat="42.78951" lon="-0.13691">
        <ele>2296.92578125</ele>
      </trkpt>
      <trkpt lat="42.79022" lon="-0.13668">
        <ele>2305.58203125</ele>
      </trkpt>
      <trkpt lat="42.79001" lon="-0.13645">
        <ele>2313.23046875</ele>
      </trkpt>
      <trkpt lat="42.79035" lon="-0.1364">
        <ele>2318.16796875</ele>
      </trkpt>
      <trkpt lat="42.79035" lon="-0.13637">
        <ele>2319.2421875</ele>
      </trkpt>
      <trkpt lat="42.79009" lon="-0.13618">
        <ele>2326.21484375</ele>
      </trkpt>
      <trkpt lat="42.79069" lon="-0.13585">
        <ele>2349.84375</ele>
      </trkpt>
      <trkpt lat="42.79068" lon="-0.13581">
        <ele>2351.3046875</ele>
      </trkpt>
      <trkpt lat="42.79039" lon="-0.1356">
        <ele>2355.17578125</ele>
      </trkpt>
      <trkpt lat="42.79065" lon="-0.13543">
        <ele>2365.8515625</ele>
      </trkpt>
      <trkpt lat="42.78973" lon="-0.13505">
        <ele>2383.06640625</ele>
      </trkpt>
      <trkpt lat="42.78976" lon="-0.13503">
        <ele>2383.9609375</ele>
      </trkpt>
      <trkpt lat="42.79076" lon="-0.13457">
        <ele>2397.80859375</ele>
      </trkpt>
      <trkpt lat="42.79015" lon="-0.13445">
        <ele>2404.7734375</ele>
      </trkpt>
      <trkpt lat="42.79019" lon="-0.13434">
        <ele>2408.38671875</ele>
      </trkpt>
      <trkpt lat="42.7907" lon="-0.13368">
        <ele>2421.265625</ele>
      </trkpt>
      <trkpt lat="42.7902" lon="-0.13351">
        <ele>2434.609375</ele>
      </trkpt>
      <trkpt lat="42.7902" lon="-0.13352">
        <ele>2434.24609375</ele>
      </trkpt>
      <trkpt lat="42.79064" lon="-0.13326">
        <ele>2433.3671875</ele>
      </trkpt>
      <trkpt lat="42.7906" lon="-0.13326">
        <ele>2433.5</ele>
      </trkpt>
      <trkpt lat="42.79026" lon="-0.1332">
        <ele>2442.58203125</ele>
      </trkpt>
      <trkpt lat="42.79028" lon="-0.13319">
        <ele>2442.4140625</ele>
      </trkpt>
      <trkpt lat="42.79055" lon="-0.13299">
        <ele>2441.6953125</ele>
      </trkpt>
      <trkpt lat="42.78989" lon="-0.13302">
        <ele>2456.90234375</ele>
      </trkpt>
      <trkpt lat="42.78988" lon="-0.13302">
        <ele>2457.16796875</ele>
      </trkpt>
      <trkpt lat="42.79013" lon="-0.1326">
        <ele>2458.8203125</ele>
      </trkpt>
      <trkpt lat="42.79009" lon="-0.13263">
        <ele>2459.30859375</ele>
      </trkpt>
      <trkpt lat="42.79005" lon="-0.13258">
        <ele>2460.81640625</ele>
      </trkpt>
      <trkpt lat="42.78931" lon="-0.13254">
        <ele>2482.87109375</ele>
      </trkpt>
      <trkpt lat="42.78929" lon="-0.13255">
        <ele>2483.3828125</ele>
      </trkpt>
      <trkpt lat="42.7887" lon="-0.13312">
        <ele>2491.2578125</ele>
      </trkpt>
      <trkpt lat="42.78869" lon="-0.1331">
        <ele>2491.63671875</ele>
      </trkpt>
      <trkpt lat="42.78813" lon="-0.1326">
        <ele>2506.30859375</ele>
      </trkpt>
      <trkpt lat="42.78784" lon="-0.13325">
        <ele>2506.9765625</ele>
      </trkpt>
      <trkpt lat="42.78784" lon="-0.13323">
        <ele>2507.4609375</ele>
      </trkpt>
      <trkpt lat="42.78756" lon="-0.13308">
        <ele>2517.265625</ele>
      </trkpt>
      <trkpt lat="42.7858" lon="-0.13357">
        <ele>2551.046875</ele>
      </trkpt>
      <trkpt lat="42.78496" lon="-0.13444">
        <ele>2556.26171875</ele>
      </trkpt>
      <trkpt lat="42.78425" lon="-0.13444">
        <ele>2576.640625</ele>
      </trkpt>
      <trkpt lat="42.78368" lon="-0.13456">
        <ele>2584.83203125</ele>
      </trkpt>
      <trkpt lat="42.7834" lon="-0.13434">
        <ele>2597.90625</ele>
      </trkpt>
      <trkpt lat="42.78318" lon="-0.13444">
        <ele>2599.75390625</ele>
      </trkpt>
      <trkpt lat="42.78256" lon="-0.13433">
        <ele>2614.6171875</ele>
      </trkpt>
      <trkpt lat="42.78199" lon="-0.13443">
        <ele>2614.3671875</ele>
      </trkpt>
      <trkpt lat="42.78136" lon="-0.13385">
        <ele>2630.99609375</ele>
      </trkpt>
      <trkpt lat="42.78121" lon="-0.13368">
        <ele>2636.0078125</ele>
      </trkpt>
      <trkpt lat="42.78141" lon="-0.13355">
        <ele>2659.1440429688</ele>
        <time>2015-05-29T09:47:02Z</time>
      </trkpt>
      <trkpt lat="42.78102" lon="-0.13328">
        <ele>2666.353515625</ele>
        <time>2015-05-29T09:45:03Z</time>
      </trkpt>
      <trkpt lat="42.78077" lon="-0.1332">
        <ele>2668.2763671875</ele>
        <time>2015-05-29T09:44:07Z</time>
      </trkpt>
      <trkpt lat="42.78058" lon="-0.13299">
        <ele>2672.1215820312</ele>
        <time>2015-05-29T09:42:22Z</time>
      </trkpt>
      <trkpt lat="42.78027" lon="-0.13284">
        <ele>2679.33203125</ele>
        <time>2015-05-29T09:39:20Z</time>
      </trkpt>
      <trkpt lat="42.78017" lon="-0.13268">
        <ele>2683.1772460938</ele>
        <time>2015-05-29T09:37:55Z</time>
      </trkpt>
      <trkpt lat="42.77988" lon="-0.13233">
        <ele>2696.6352539062</ele>
        <time>2015-05-29T09:34:59Z</time>
      </trkpt>
      <trkpt lat="42.77986" lon="-0.13207">
        <ele>2706.2485351562</ele>
        <time>2015-05-29T09:33:38Z</time>
      </trkpt>
      <trkpt lat="42.77971" lon="-0.13187">
        <ele>2721.1489257812</ele>
        <time>2015-05-29T09:32:37Z</time>
      </trkpt>
      <trkpt lat="42.77966" lon="-0.13177">
        <ele>2724.994140625</ele>
        <time>2015-05-29T09:32:02Z</time>
      </trkpt>
      <trkpt lat="42.7796" lon="-0.1317">
        <ele>2729.80078125</ele>
        <time>2015-05-29T09:15:49Z</time>
      </trkpt>
      <trkpt lat="42.77949" lon="-0.1315">
        <ele>2734.607421875</ele>
        <time>2015-05-29T09:13:56Z</time>
      </trkpt>
      <trkpt lat="42.77926" lon="-0.13126">
        <ele>2739.4140625</ele>
        <time>2015-05-29T09:12:27Z</time>
      </trkpt>
      <trkpt lat="42.77904" lon="-0.13091">
        <ele>2731.2426757812</ele>
        <time>2015-05-29T09:10:41Z</time>
      </trkpt>
      <trkpt lat="42.77899" lon="-0.13051">
        <ele>2721.6298828125</ele>
        <time>2015-05-29T09:08:58Z</time>
      </trkpt>
      <trkpt lat="42.77907" lon="-0.13019">
        <ele>2714.419921875</ele>
        <time>2015-05-29T09:07:13Z</time>
      </trkpt>
      <trkpt lat="42.7792" lon="-0.12987">
        <ele>2709.1328125</ele>
        <time>2015-05-29T09:05:59Z</time>
      </trkpt>
      <trkpt lat="42.77924" lon="-0.12947">
        <ele>2703.3642578125</ele>
        <time>2015-05-29T09:04:25Z</time>
      </trkpt>
      <trkpt lat="42.77928" lon="-0.12902">
        <ele>2695.673828125</ele>
        <time>2015-05-29T09:03:08Z</time>
      </trkpt>
      <trkpt lat="42.77936" lon="-0.12866">
        <ele>2688.4643554688</ele>
        <time>2015-05-29T09:02:11Z</time>
      </trkpt>
      <trkpt lat="42.77944" lon="-0.12821">
        <ele>2684.1381835938</ele>
        <time>2015-05-29T09:00:50Z</time>
      </trkpt>
      <trkpt lat="42.77949" lon="-0.12777">
        <ele>2677.8901367188</ele>
        <time>2015-05-29T08:59:33Z</time>
      </trkpt>
      <trkpt lat="42.77959" lon="-0.12741">
        <ele>2672.1215820312</ele>
        <time>2015-05-29T08:58:22Z</time>
      </trkpt>
      <trkpt lat="42.77965" lon="-0.12704">
        <ele>2665.873046875</ele>
        <time>2015-05-29T08:57:14Z</time>
      </trkpt>
      <trkpt lat="42.77971" lon="-0.12657">
        <ele>2662.0278320312</ele>
        <time>2015-05-29T08:56:11Z</time>
      </trkpt>
      <trkpt lat="42.77973" lon="-0.12609">
        <ele>2657.7021484375</ele>
        <time>2015-05-29T08:54:49Z</time>
      </trkpt>
      <trkpt lat="42.77969" lon="-0.12562">
        <ele>2657.7021484375</ele>
        <time>2015-05-29T08:53:33Z</time>
      </trkpt>
      <trkpt lat="42.77945" lon="-0.12521">
        <ele>2660.5859375</ele>
        <time>2015-05-29T08:52:36Z</time>
      </trkpt>
      <trkpt lat="42.77936" lon="-0.12483">
        <ele>2662.5087890625</ele>
        <time>2015-05-29T08:52:05Z</time>
      </trkpt>
      <trkpt lat="42.7793" lon="-0.12418">
        <ele>2664.4311523438</ele>
        <time>2015-05-29T08:49:47Z</time>
      </trkpt>
      <trkpt lat="42.77926" lon="-0.12431">
        <ele>2664.9116210938</ele>
        <time>2015-05-29T08:51:03Z</time>
      </trkpt>
      <trkpt lat="42.77936" lon="-0.12483">
        <ele>2662.5087890625</ele>
        <time>2015-05-29T08:52:05Z</time>
      </trkpt>
      <trkpt lat="42.77945" lon="-0.12521">
        <ele>2660.5859375</ele>
        <time>2015-05-29T08:52:36Z</time>
      </trkpt>
      <trkpt lat="42.77969" lon="-0.12562">
        <ele>2657.7021484375</ele>
        <time>2015-05-29T08:53:33Z</time>
      </trkpt>
      <trkpt lat="42.77973" lon="-0.12609">
        <ele>2657.7021484375</ele>
        <time>2015-05-29T08:54:49Z</time>
      </trkpt>
      <trkpt lat="42.77971" lon="-0.12657">
        <ele>2662.0278320312</ele>
        <time>2015-05-29T08:56:11Z</time>
      </trkpt>
      <trkpt lat="42.77965" lon="-0.12704">
        <ele>2665.873046875</ele>
        <time>2015-05-29T08:57:14Z</time>
      </trkpt>
      <trkpt lat="42.77959" lon="-0.12741">
        <ele>2672.1215820312</ele>
        <time>2015-05-29T08:58:22Z</time>
      </trkpt>
      <trkpt lat="42.77949" lon="-0.12777">
        <ele>2677.8901367188</ele>
        <time>2015-05-29T08:59:33Z</time>
      </trkpt>
      <trkpt lat="42.77944" lon="-0.12821">
        <ele>2684.1381835938</ele>
        <time>2015-05-29T09:00:50Z</time>
      </trkpt>
      <trkpt lat="42.77936" lon="-0.12866">
        <ele>2688.4643554688</ele>
        <time>2015-05-29T09:02:11Z</time>
      </trkpt>
      <trkpt lat="42.77928" lon="-0.12902">
        <ele>2695.673828125</ele>
        <time>2015-05-29T09:03:08Z</time>
      </trkpt>
      <trkpt lat="42.77924" lon="-0.12947">
        <ele>2703.3642578125</ele>
        <time>2015-05-29T09:04:25Z</time>
      </trkpt>
      <trkpt lat="42.7792" lon="-0.12987">
        <ele>2709.1328125</ele>
        <time>2015-05-29T09:05:59Z</time>
      </trkpt>
      <trkpt lat="42.77907" lon="-0.13019">
        <ele>2714.419921875</ele>
        <time>2015-05-29T09:07:13Z</time>
      </trkpt>
      <trkpt lat="42.77899" lon="-0.13051">
        <ele>2721.6298828125</ele>
        <time>2015-05-29T09:08:58Z</time>
      </trkpt>
      <trkpt lat="42.77904" lon="-0.13091">
        <ele>2731.2426757812</ele>
        <time>2015-05-29T09:10:41Z</time>
      </trkpt>
      <trkpt lat="42.77926" lon="-0.13126">
        <ele>2739.4140625</ele>
        <time>2015-05-29T09:12:27Z</time>
      </trkpt>
      <trkpt lat="42.77949" lon="-0.1315">
        <ele>2734.607421875</ele>
        <time>2015-05-29T09:13:56Z</time>
      </trkpt>
      <trkpt lat="42.7796" lon="-0.1317">
        <ele>2729.80078125</ele>
        <time>2015-05-29T09:15:49Z</time>
      </trkpt>
      <trkpt lat="42.77966" lon="-0.13177">
        <ele>2724.994140625</ele>
        <time>2015-05-29T09:32:02Z</time>
      </trkpt>
      <trkpt lat="42.77971" lon="-0.13187">
        <ele>2721.1489257812</ele>
        <time>2015-05-29T09:32:37Z</time>
      </trkpt>
      <trkpt lat="42.77986" lon="-0.13207">
        <ele>2706.2485351562</ele>
        <time>2015-05-29T09:33:38Z</time>
      </trkpt>
      <trkpt lat="42.77988" lon="-0.13233">
        <ele>2696.6352539062</ele>
        <time>2015-05-29T09:34:59Z</time>
      </trkpt>
      <trkpt lat="42.78017" lon="-0.13268">
        <ele>2683.1772460938</ele>
        <time>2015-05-29T09:37:55Z</time>
      </trkpt>
      <trkpt lat="42.78027" lon="-0.13284">
        <ele>2679.33203125</ele>
        <time>2015-05-29T09:39:20Z</time>
      </trkpt>
      <trkpt lat="42.78058" lon="-0.13299">
        <ele>2672.1215820312</ele>
        <time>2015-05-29T09:42:22Z</time>
      </trkpt>
      <trkpt lat="42.78077" lon="-0.1332">
        <ele>2668.2763671875</ele>
        <time>2015-05-29T09:44:07Z</time>
      </trkpt>
      <trkpt lat="42.78102" lon="-0.13328">
        <ele>2666.353515625</ele>
        <time>2015-05-29T09:45:03Z</time>
      </trkpt>
      <trkpt lat="42.78141" lon="-0.13355">
        <ele>2659.1440429688</ele>
        <time>2015-05-29T09:47:02Z</time>
      </trkpt>
      <trkpt lat="42.78121" lon="-0.13368">
        <ele>2636.0078125</ele>
      </trkpt>
      <trkpt lat="42.78136" lon="-0.13385">
        <ele>2630.99609375</ele>
      </trkpt>
      <trkpt lat="42.78199" lon="-0.13443">
        <ele>2614.3671875</ele>
      </trkpt>
      <trkpt lat="42.78256" lon="-0.13433">
        <ele>2614.6171875</ele>
      </trkpt>
      <trkpt lat="42.78318" lon="-0.13444">
        <ele>2599.75390625</ele>
      </trkpt>
      <trkpt lat="42.7834" lon="-0.13434">
        <ele>2597.90625</ele>
      </trkpt>
      <trkpt lat="42.78368" lon="-0.13456">
        <ele>2584.83203125</ele>
      </trkpt>
      <trkpt lat="42.78425" lon="-0.13444">
        <ele>2576.640625</ele>
      </trkpt>
      <trkpt lat="42.78496" lon="-0.13444">
        <ele>2556.26171875</ele>
      </trkpt>
      <trkpt lat="42.7858" lon="-0.13357">
        <ele>2551.046875</ele>
      </trkpt>
      <trkpt lat="42.78756" lon="-0.13308">
        <ele>2517.265625</ele>
      </trkpt>
      <trkpt lat="42.78784" lon="-0.13323">
        <ele>2507.4609375</ele>
      </trkpt>
      <trkpt lat="42.78784" lon="-0.13325">
        <ele>2506.9765625</ele>
      </trkpt>
      <trkpt lat="42.78813" lon="-0.1326">
        <ele>2506.30859375</ele>
      </trkpt>
      <trkpt lat="42.78869" lon="-0.1331">
        <ele>2491.63671875</ele>
      </trkpt>
      <trkpt lat="42.7887" lon="-0.13312">
        <ele>2491.2578125</ele>
      </trkpt>
      <trkpt lat="42.78929" lon="-0.13255">
        <ele>2483.3828125</ele>
      </trkpt>
      <trkpt lat="42.78931" lon="-0.13254">
        <ele>2482.87109375</ele>
      </trkpt>
      <trkpt lat="42.79005" lon="-0.13258">
        <ele>2460.81640625</ele>
      </trkpt>
      <trkpt lat="42.79009" lon="-0.13263">
        <ele>2459.30859375</ele>
      </trkpt>
      <trkpt lat="42.79013" lon="-0.1326">
        <ele>2458.8203125</ele>
      </trkpt>
      <trkpt lat="42.78988" lon="-0.13302">
        <ele>2457.16796875</ele>
      </trkpt>
      <trkpt lat="42.78989" lon="-0.13302">
        <ele>2456.90234375</ele>
      </trkpt>
      <trkpt lat="42.79055" lon="-0.13299">
        <ele>2441.6953125</ele>
      </trkpt>
      <trkpt lat="42.79028" lon="-0.13319">
        <ele>2442.4140625</ele>
      </trkpt>
      <trkpt lat="42.79026" lon="-0.1332">
        <ele>2442.58203125</ele>
      </trkpt>
      <trkpt lat="42.7906" lon="-0.13326">
        <ele>2433.5</ele>
      </trkpt>
      <trkpt lat="42.79064" lon="-0.13326">
        <ele>2433.3671875</ele>
      </trkpt>
      <trkpt lat="42.7902" lon="-0.13352">
        <ele>2434.24609375</ele>
      </trkpt>
      <trkpt lat="42.7902" lon="-0.13351">
        <ele>2434.609375</ele>
      </trkpt>
      <trkpt lat="42.7907" lon="-0.13368">
        <ele>2421.265625</ele>
      </trkpt>
      <trkpt lat="42.79019" lon="-0.13434">
        <ele>2408.38671875</ele>
      </trkpt>
      <trkpt lat="42.79015" lon="-0.13445">
        <ele>2404.7734375</ele>
      </trkpt>
      <trkpt lat="42.79076" lon="-0.13457">
        <ele>2397.80859375</ele>
      </trkpt>
      <trkpt lat="42.78976" lon="-0.13503">
        <ele>2383.9609375</ele>
      </trkpt>
      <trkpt lat="42.78973" lon="-0.13505">
        <ele>2383.06640625</ele>
      </trkpt>
      <trkpt lat="42.79065" lon="-0.13543">
        <ele>2365.8515625</ele>
      </trkpt>
      <trkpt lat="42.79039" lon="-0.1356">
        <ele>2355.17578125</ele>
      </trkpt>
      <trkpt lat="42.79068" lon="-0.13581">
        <ele>2351.3046875</ele>
      </trkpt>
      <trkpt lat="42.79069" lon="-0.13585">
        <ele>2349.84375</ele>
      </trkpt>
      <trkpt lat="42.79009" lon="-0.13618">
        <ele>2326.21484375</ele>
      </trkpt>
      <trkpt lat="42.79035" lon="-0.13637">
        <ele>2319.2421875</ele>
      </trkpt>
      <trkpt lat="42.79035" lon="-0.1364">
        <ele>2318.16796875</ele>
      </trkpt>
      <trkpt lat="42.79001" lon="-0.13645">
        <ele>2313.23046875</ele>
      </trkpt>
      <trkpt lat="42.79022" lon="-0.13668">
        <ele>2305.58203125</ele>
      </trkpt>
      <trkpt lat="42.78951" lon="-0.13691">
        <ele>2296.92578125</ele>
      </trkpt>
      <trkpt lat="42.78948" lon="-0.13693">
        <ele>2296.73046875</ele>
      </trkpt>
      <trkpt lat="42.78837" lon="-0.13726">
        <ele>2290.92578125</ele>
      </trkpt>
      <trkpt lat="42.7883" lon="-0.13732">
        <ele>2288</ele>
      </trkpt>
      <trkpt lat="42.78825" lon="-0.13737">
        <ele>2285.69140625</ele>
      </trkpt>
      <trkpt lat="42.78791" lon="-0.13778">
        <ele>2266.92578125</ele>
      </trkpt>
      <trkpt lat="42.78837" lon="-0.13797">
        <ele>2257.8203125</ele>
      </trkpt>
      <trkpt lat="42.78837" lon="-0.13798">
        <ele>2257.3359375</ele>
      </trkpt>
      <trkpt lat="42.78882" lon="-0.13805">
        <ele>2261.6389160156</ele>
        <time>2015-05-29T11:12:45Z</time>
      </trkpt>
      <trkpt lat="42.78909" lon="-0.13804">
        <ele>2255.8708496094</ele>
        <time>2015-05-29T11:15:00Z</time>
      </trkpt>
      <trkpt lat="42.78939" lon="-0.13807">
        <ele>2246.2578125</ele>
        <time>2015-05-29T11:15:46Z</time>
      </trkpt>
      <trkpt lat="42.78966" lon="-0.13825">
        <ele>2243.3737792969</ele>
        <time>2015-05-29T11:16:32Z</time>
      </trkpt>
      <trkpt lat="42.78967" lon="-0.13849">
        <ele>2236.1640625</ele>
        <time>2015-05-29T11:17:23Z</time>
      </trkpt>
      <trkpt lat="42.78977" lon="-0.13857">
        <ele>2227.9926757812</ele>
        <time>2015-05-29T11:18:14Z</time>
      </trkpt>
      <trkpt lat="42.78977" lon="-0.13857">
        <ele>2227.9926757812</ele>
        <time>2015-05-29T11:18:14Z</time>
      </trkpt>
      <trkpt lat="42.79001" lon="-0.13875">
        <ele>2221.744140625</ele>
        <time>2015-05-29T11:19:51Z</time>
      </trkpt>
      <trkpt lat="42.79027" lon="-0.13896">
        <ele>2211.650390625</ele>
        <time>2015-05-29T11:22:39Z</time>
      </trkpt>
      <trkpt lat="42.79059" lon="-0.1389">
        <ele>2210.6889648438</ele>
        <time>2015-05-29T11:23:17Z</time>
      </trkpt>
      <trkpt lat="42.79086" lon="-0.13892">
        <ele>2207.8051757812</ele>
        <time>2015-05-29T11:24:08Z</time>
      </trkpt>
      <trkpt lat="42.79121" lon="-0.13912">
        <ele>2199.6337890625</ele>
        <time>2015-05-29T11:24:51Z</time>
      </trkpt>
      <trkpt lat="42.7915" lon="-0.13944">
        <ele>2190.0207519531</ele>
        <time>2015-05-29T11:25:43Z</time>
      </trkpt>
      <trkpt lat="42.79179" lon="-0.13963">
        <ele>2181.8493652344</ele>
        <time>2015-05-29T11:26:41Z</time>
      </trkpt>
      <trkpt lat="42.79195" lon="-0.13991">
        <ele>2177.04296875</ele>
        <time>2015-05-29T11:27:49Z</time>
      </trkpt>
      <trkpt lat="42.79219" lon="-0.13998">
        <ele>2175.6008300781</ele>
        <time>2015-05-29T11:30:34Z</time>
      </trkpt>
      <trkpt lat="42.79241" lon="-0.14028">
        <ele>2170.7941894531</ele>
        <time>2015-05-29T11:31:10Z</time>
      </trkpt>
      <trkpt lat="42.79261" lon="-0.14061">
        <ele>2166.9489746094</ele>
        <time>2015-05-29T11:31:47Z</time>
      </trkpt>
      <trkpt lat="42.79274" lon="-0.14114">
        <ele>2165.0263671875</ele>
        <time>2015-05-29T11:32:18Z</time>
      </trkpt>
      <trkpt lat="42.79284" lon="-0.14141">
        <ele>2153.9711914062</ele>
        <time>2015-05-27T11:53:48Z</time>
      </trkpt>
      <trkpt lat="42.79273" lon="-0.14164">
        <ele>2147.2419433594</ele>
        <time>2015-05-27T11:52:37Z</time>
      </trkpt>
      <trkpt lat="42.79301" lon="-0.1418">
        <ele>2147.72265625</ele>
        <time>2015-05-27T11:52:00Z</time>
      </trkpt>
      <trkpt lat="42.79332" lon="-0.14192">
        <ele>2146.7612304688</ele>
        <time>2015-05-27T11:51:29Z</time>
      </trkpt>
      <trkpt lat="42.7934" lon="-0.1422">
        <ele>2145.8000488281</ele>
        <time>2015-05-27T11:48:53Z</time>
      </trkpt>
      <trkpt lat="42.79358" lon="-0.14236">
        <ele>2146.2807617188</ele>
        <time>2015-05-27T11:48:06Z</time>
      </trkpt>
      <trkpt lat="42.79381" lon="-0.14248">
        <ele>2152.5290527344</ele>
        <time>2015-05-27T11:47:26Z</time>
      </trkpt>
      <trkpt lat="42.79409" lon="-0.14245">
        <ele>2150.6064453125</ele>
        <time>2015-05-27T11:46:54Z</time>
      </trkpt>
      <trkpt lat="42.79436" lon="-0.14263">
        <ele>2150.1259765625</ele>
        <time>2015-05-27T11:46:22Z</time>
      </trkpt>
      <trkpt lat="42.79468" lon="-0.14267">
        <ele>2150.1259765625</ele>
        <time>2015-05-27T11:45:41Z</time>
      </trkpt>
      <trkpt lat="42.79496" lon="-0.14245">
        <ele>2147.2419433594</ele>
        <time>2015-05-27T11:45:02Z</time>
      </trkpt>
      <trkpt lat="42.79483" lon="-0.1422">
        <ele>2140.9934082031</ele>
        <time>2015-05-27T11:44:15Z</time>
      </trkpt>
      <trkpt lat="42.79457" lon="-0.14226">
        <ele>2136.6672363281</ele>
        <time>2015-05-27T11:43:22Z</time>
      </trkpt>
      <trkpt lat="42.7947" lon="-0.14198">
        <ele>2123.689453125</ele>
        <time>2015-05-27T11:42:00Z</time>
      </trkpt>
      <trkpt lat="42.79503" lon="-0.14177">
        <ele>2116.9604492188</ele>
        <time>2015-05-27T11:40:58Z</time>
      </trkpt>
      <trkpt lat="42.79535" lon="-0.14172">
        <ele>2109.2700195312</ele>
        <time>2015-05-27T11:40:00Z</time>
      </trkpt>
      <trkpt lat="42.79579" lon="-0.14163">
        <ele>2100.6179199219</ele>
        <time>2015-05-27T11:38:58Z</time>
      </trkpt>
      <trkpt lat="42.79594" lon="-0.14161">
        <ele>2096.2922363281</ele>
        <time>2015-05-27T11:38:11Z</time>
      </trkpt>
      <trkpt lat="42.79595" lon="-0.14121">
        <ele>2091.4853515625</ele>
        <time>2015-05-27T11:37:15Z</time>
      </trkpt>
      <trkpt lat="42.79615" lon="-0.14095">
        <ele>2087.1594238281</ele>
        <time>2015-05-27T11:36:43Z</time>
      </trkpt>
      <trkpt lat="42.79627" lon="-0.14063">
        <ele>2082.3530273438</ele>
        <time>2015-05-27T11:36:15Z</time>
      </trkpt>
      <trkpt lat="42.79649" lon="-0.14074">
        <ele>2078.98828125</ele>
        <time>2015-05-27T11:35:49Z</time>
      </trkpt>
      <trkpt lat="42.79678" lon="-0.14068">
        <ele>2076.1044921875</ele>
        <time>2015-05-27T11:35:04Z</time>
      </trkpt>
      <trkpt lat="42.79707" lon="-0.14059">
        <ele>2073.2204589844</ele>
        <time>2015-05-27T11:34:34Z</time>
      </trkpt>
      <trkpt lat="42.79726" lon="-0.14028">
        <ele>2069.3752441406</ele>
        <time>2015-05-27T11:33:59Z</time>
      </trkpt>
      <trkpt lat="42.79757" lon="-0.14013">
        <ele>2068.89453125</ele>
        <time>2015-05-27T11:33:23Z</time>
      </trkpt>
      <trkpt lat="42.79782" lon="-0.14001">
        <ele>2066.0104980469</ele>
        <time>2015-05-27T11:32:52Z</time>
      </trkpt>
      <trkpt lat="42.79809" lon="-0.13977">
        <ele>2063.6071777344</ele>
        <time>2015-05-27T11:32:23Z</time>
      </trkpt>
      <trkpt lat="42.79837" lon="-0.13958">
        <ele>2061.6848144531</ele>
        <time>2015-05-27T11:31:43Z</time>
      </trkpt>
      <trkpt lat="42.79862" lon="-0.13941">
        <ele>2060.2426757812</ele>
        <time>2015-05-27T11:31:08Z</time>
      </trkpt>
      <trkpt lat="42.79892" lon="-0.13934">
        <ele>2059.28125</ele>
        <time>2015-05-27T11:30:40Z</time>
      </trkpt>
      <trkpt lat="42.79918" lon="-0.13928">
        <ele>2057.8393554688</ele>
        <time>2015-05-27T11:30:20Z</time>
      </trkpt>
      <trkpt lat="42.79951" lon="-0.13931">
        <ele>2057.8393554688</ele>
        <time>2015-05-27T11:30:03Z</time>
      </trkpt>
      <trkpt lat="42.80012" lon="-0.1395">
        <ele>2057.8393554688</ele>
        <time>2015-05-27T11:29:48Z</time>
      </trkpt>
      <trkpt lat="42.80079" lon="-0.13925">
        <ele>2056.8779296875</ele>
        <time>2015-05-27T11:28:49Z</time>
      </trkpt>
      <trkpt lat="42.8028" lon="-0.13882">
        <ele>2053.994140625</ele>
        <time>2015-05-27T11:22:19Z</time>
      </trkpt>
      <trkpt lat="42.80309" lon="-0.13851">
        <ele>2053.5134277344</ele>
        <time>2015-05-27T11:21:45Z</time>
      </trkpt>
      <trkpt lat="42.8035" lon="-0.13831">
        <ele>2053.5134277344</ele>
        <time>2015-05-27T11:20:53Z</time>
      </trkpt>
      <trkpt lat="42.80378" lon="-0.13816">
        <ele>2050.6293945312</ele>
        <time>2015-05-27T11:20:13Z</time>
      </trkpt>
      <trkpt lat="42.80413" lon="-0.13785">
        <ele>2043.4194335938</ele>
        <time>2015-05-27T11:19:34Z</time>
      </trkpt>
      <trkpt lat="42.80451" lon="-0.13767">
        <ele>2040.5354003906</ele>
        <time>2015-05-27T11:18:38Z</time>
      </trkpt>
      <trkpt lat="42.80488" lon="-0.13763">
        <ele>2030.4418945312</ele>
        <time>2015-05-27T11:17:24Z</time>
      </trkpt>
      <trkpt lat="42.8053" lon="-0.1375">
        <ele>2024.673828125</ele>
        <time>2015-05-27T11:16:17Z</time>
      </trkpt>
      <trkpt lat="42.80565" lon="-0.13765">
        <ele>2014.580078125</ele>
        <time>2015-05-27T11:15:12Z</time>
      </trkpt>
      <trkpt lat="42.80595" lon="-0.13782">
        <ele>2010.7346191406</ele>
        <time>2015-05-27T11:14:21Z</time>
      </trkpt>
      <trkpt lat="42.80618" lon="-0.1375">
        <ele>2004.0056152344</ele>
        <time>2015-05-27T11:13:26Z</time>
      </trkpt>
      <trkpt lat="42.80654" lon="-0.13698">
        <ele>1997.7570800781</ele>
        <time>2015-05-27T11:12:07Z</time>
      </trkpt>
      <trkpt lat="42.80688" lon="-0.13667">
        <ele>1992.9501953125</ele>
        <time>2015-05-27T11:11:09Z</time>
      </trkpt>
      <trkpt lat="42.80725" lon="-0.13667">
        <ele>1991.0275878906</ele>
        <time>2015-05-27T11:10:31Z</time>
      </trkpt>
      <trkpt lat="42.80759" lon="-0.13682">
        <ele>1992.9501953125</ele>
        <time>2015-05-27T11:09:51Z</time>
      </trkpt>
      <trkpt lat="42.80788" lon="-0.13671">
        <ele>1991.9890136719</ele>
        <time>2015-05-27T11:09:17Z</time>
      </trkpt>
      <trkpt lat="42.80877" lon="-0.13684">
        <ele>1990.06640625</ele>
        <time>2015-05-27T11:07:40Z</time>
      </trkpt>
      <trkpt lat="42.80896" lon="-0.13641">
        <ele>1991.0275878906</ele>
        <time>2015-05-27T11:06:46Z</time>
      </trkpt>
      <trkpt lat="42.80922" lon="-0.13675">
        <ele>1988.1437988281</ele>
        <time>2015-05-27T11:04:45Z</time>
      </trkpt>
      <trkpt lat="42.80921" lon="-0.13691">
        <ele>1985.7404785156</ele>
        <time>2015-05-27T11:03:11Z</time>
      </trkpt>
      <trkpt lat="42.80953" lon="-0.13721">
        <ele>1981.8952636719</ele>
        <time>2015-05-27T11:02:25Z</time>
      </trkpt>
      <trkpt lat="42.80967" lon="-0.13749">
        <ele>1981.8952636719</ele>
        <time>2015-05-27T11:01:56Z</time>
      </trkpt>
      <trkpt lat="42.80989" lon="-0.13782">
        <ele>1977.5690917969</ele>
        <time>2015-05-27T11:01:13Z</time>
      </trkpt>
      <trkpt lat="42.8101" lon="-0.13803">
        <ele>1976.6079101562</ele>
        <time>2015-05-27T11:00:39Z</time>
      </trkpt>
      <trkpt lat="42.81037" lon="-0.13815">
        <ele>1976.6079101562</ele>
        <time>2015-05-27T11:00:08Z</time>
      </trkpt>
      <trkpt lat="42.81064" lon="-0.13825">
        <ele>1978.5305175781</ele>
        <time>2015-05-27T10:59:28Z</time>
      </trkpt>
      <trkpt lat="42.81092" lon="-0.13797">
        <ele>1974.2045898438</ele>
        <time>2015-05-27T10:58:18Z</time>
      </trkpt>
      <trkpt lat="42.81113" lon="-0.13773">
        <ele>1966.5141601562</ele>
        <time>2015-05-27T10:57:04Z</time>
      </trkpt>
      <trkpt lat="42.81149" lon="-0.13767">
        <ele>1955.939453125</ele>
        <time>2015-05-27T10:55:39Z</time>
      </trkpt>
      <trkpt lat="42.81179" lon="-0.13774">
        <ele>1956.4201660156</ele>
        <time>2015-05-27T10:55:12Z</time>
      </trkpt>
      <trkpt lat="42.8121" lon="-0.1377">
        <ele>1953.0556640625</ele>
        <time>2015-05-27T10:54:37Z</time>
      </trkpt>
      <trkpt lat="42.81236" lon="-0.13763">
        <ele>1952.0942382812</ele>
        <time>2015-05-27T10:53:58Z</time>
      </trkpt>
      <trkpt lat="42.81259" lon="-0.13774">
        <ele>1952.0942382812</ele>
        <time>2015-05-27T10:53:28Z</time>
      </trkpt>
      <trkpt lat="42.81285" lon="-0.13792">
        <ele>1949.2104492188</ele>
        <time>2015-05-27T10:52:25Z</time>
      </trkpt>
      <trkpt lat="42.8131" lon="-0.13776">
        <ele>1951.6137695312</ele>
        <time>2015-05-27T10:51:56Z</time>
      </trkpt>
      <trkpt lat="42.81334" lon="-0.13786">
        <ele>1948.7297363281</ele>
        <time>2015-05-27T10:51:19Z</time>
      </trkpt>
      <trkpt lat="42.81365" lon="-0.13751">
        <ele>1946.3264160156</ele>
        <time>2015-05-27T10:50:37Z</time>
      </trkpt>
      <trkpt lat="42.81397" lon="-0.13725">
        <ele>1941.5197753906</ele>
        <time>2015-05-27T10:49:54Z</time>
      </trkpt>
      <trkpt lat="42.81413" lon="-0.13703">
        <ele>1936.2326660156</ele>
        <time>2015-05-27T10:43:20Z</time>
      </trkpt>
      <trkpt lat="42.81446" lon="-0.13696">
        <ele>1926.6193847656</ele>
        <time>2015-05-27T10:41:33Z</time>
      </trkpt>
      <trkpt lat="42.81459" lon="-0.13694">
        <ele>1916.5256347656</ele>
        <time>2015-05-27T10:38:45Z</time>
      </trkpt>
      <trkpt lat="42.81487" lon="-0.13705">
        <ele>1909.7961425781</ele>
        <time>2015-05-27T10:37:34Z</time>
      </trkpt>
      <trkpt lat="42.81512" lon="-0.13719">
        <ele>1903.0671386719</ele>
        <time>2015-05-27T10:36:31Z</time>
      </trkpt>
      <trkpt lat="42.81538" lon="-0.1374">
        <ele>1900.1833496094</ele>
        <time>2015-05-27T10:35:29Z</time>
      </trkpt>
      <trkpt lat="42.81562" lon="-0.13764">
        <ele>1893.4538574219</ele>
        <time>2015-05-27T10:34:27Z</time>
      </trkpt>
      <trkpt lat="42.81588" lon="-0.13741">
        <ele>1890.5698242188</ele>
        <time>2015-05-27T10:33:44Z</time>
      </trkpt>
      <trkpt lat="42.81613" lon="-0.13713">
        <ele>1883.3598632812</ele>
        <time>2015-05-27T10:32:33Z</time>
      </trkpt>
      <trkpt lat="42.81647" lon="-0.13734">
        <ele>1873.7468261719</ele>
        <time>2015-05-27T10:29:50Z</time>
      </trkpt>
      <trkpt lat="42.81684" lon="-0.13735">
        <ele>1865.0949707031</ele>
        <time>2015-05-27T10:28:52Z</time>
      </trkpt>
      <trkpt lat="42.81712" lon="-0.13742">
        <ele>1858.3657226562</ele>
        <time>2015-05-27T10:28:11Z</time>
      </trkpt>
      <trkpt lat="42.81738" lon="-0.13755">
        <ele>1855.0012207031</ele>
        <time>2015-05-27T10:27:36Z</time>
      </trkpt>
      <trkpt lat="42.81766" lon="-0.13776">
        <ele>1852.1171875</ele>
        <time>2015-05-27T10:26:51Z</time>
      </trkpt>
      <trkpt lat="42.81791" lon="-0.13782">
        <ele>1852.5979003906</ele>
        <time>2015-05-27T10:26:03Z</time>
      </trkpt>
      <trkpt lat="42.81813" lon="-0.13787">
        <ele>1850.1945800781</ele>
        <time>2015-05-27T10:25:18Z</time>
      </trkpt>
      <trkpt lat="42.81845" lon="-0.13784">
        <ele>1845.8686523438</ele>
        <time>2015-05-27T10:24:04Z</time>
      </trkpt>
      <trkpt lat="42.81888" lon="-0.13757">
        <ele>1842.0234375</ele>
        <time>2015-05-27T10:22:55Z</time>
      </trkpt>
      <trkpt lat="42.81905" lon="-0.13729">
        <ele>1840.1008300781</ele>
        <time>2015-05-27T10:22:22Z</time>
      </trkpt>
      <trkpt lat="42.81944" lon="-0.13757">
        <ele>1831.9294433594</ele>
        <time>2015-05-27T10:20:25Z</time>
      </trkpt>
      <trkpt lat="42.82016" lon="-0.13728">
        <ele>1818.4709472656</ele>
        <time>2015-05-27T10:18:05Z</time>
      </trkpt>
      <trkpt lat="42.82078" lon="-0.13711">
        <ele>1817.990234375</ele>
        <time>2015-05-27T10:16:28Z</time>
      </trkpt>
      <trkpt lat="42.82091" lon="-0.13735">
        <ele>1809.8190917969</ele>
        <time>2015-05-27T10:15:29Z</time>
      </trkpt>
      <trkpt lat="42.82121" lon="-0.13724">
        <ele>1806.9353027344</ele>
        <time>2015-05-27T10:14:48Z</time>
      </trkpt>
      <trkpt lat="42.8216" lon="-0.13736">
        <ele>1800.2060546875</ele>
        <time>2015-05-27T10:14:00Z</time>
      </trkpt>
      <trkpt lat="42.82248" lon="-0.13747">
        <ele>1799.2446289062</ele>
        <time>2015-05-27T10:12:10Z</time>
      </trkpt>
      <trkpt lat="42.82276" lon="-0.13742">
        <ele>1797.802734375</ele>
        <time>2015-05-27T10:11:45Z</time>
      </trkpt>
      <trkpt lat="42.82315" lon="-0.13825">
        <ele>1792.515625</ele>
        <time>2015-05-27T10:05:00Z</time>
      </trkpt>
      <trkpt lat="42.8236" lon="-0.1387">
        <ele>1771.3662109375</ele>
        <time>2015-05-27T10:00:27Z</time>
      </trkpt>
      <trkpt lat="42.82412" lon="-0.13925">
        <ele>1768.9631347656</ele>
        <time>2015-05-27T09:58:34Z</time>
      </trkpt>
      <trkpt lat="42.8246" lon="-0.13962">
        <ele>1759.3500976562</ele>
        <time>2015-05-27T09:56:40Z</time>
      </trkpt>
      <trkpt lat="42.82507" lon="-0.13984">
        <ele>1754.0627441406</ele>
        <time>2015-05-27T09:55:22Z</time>
      </trkpt>
      <trkpt lat="42.82587" lon="-0.14004">
        <ele>1746.8527832031</ele>
        <time>2015-05-27T09:52:57Z</time>
      </trkpt>
      <trkpt lat="42.82623" lon="-0.14">
        <ele>1742.5270996094</ele>
        <time>2015-05-27T09:52:12Z</time>
      </trkpt>
      <trkpt lat="42.82654" lon="-0.14003">
        <ele>1741.5656738281</ele>
        <time>2015-05-27T09:51:16Z</time>
      </trkpt>
      <trkpt lat="42.82686" lon="-0.14008">
        <ele>1739.162109375</ele>
        <time>2015-05-27T09:50:38Z</time>
      </trkpt>
      <trkpt lat="42.82708" lon="-0.13987">
        <ele>1739.162109375</ele>
        <time>2015-05-27T09:50:07Z</time>
      </trkpt>
      <trkpt lat="42.82738" lon="-0.13995">
        <ele>1737.2395019531</ele>
        <time>2015-05-27T09:49:35Z</time>
      </trkpt>
      <trkpt lat="42.8278" lon="-0.13987">
        <ele>1736.2783203125</ele>
        <time>2015-05-27T09:48:54Z</time>
      </trkpt>
      <trkpt lat="42.82779" lon="-0.1399">
        <ele>1735.7976074219</ele>
        <time>2015-05-27T09:48:27Z</time>
      </trkpt>
      <trkpt lat="42.82775" lon="-0.14029">
        <ele>1736.2783203125</ele>
        <time>2015-05-27T09:47:48Z</time>
      </trkpt>
      <trkpt lat="42.82802" lon="-0.14037">
        <ele>1737.2395019531</ele>
        <time>2015-05-27T09:47:19Z</time>
      </trkpt>
      <trkpt lat="42.82831" lon="-0.14064">
        <ele>1736.2783203125</ele>
        <time>2015-05-27T09:46:29Z</time>
      </trkpt>
      <trkpt lat="42.8286" lon="-0.14094">
        <ele>1739.162109375</ele>
        <time>2015-05-27T09:45:30Z</time>
      </trkpt>
      <trkpt lat="42.82891" lon="-0.14112">
        <ele>1739.6428222656</ele>
        <time>2015-05-27T09:44:53Z</time>
      </trkpt>
      <trkpt lat="42.82916" lon="-0.14125">
        <ele>1740.1237792969</ele>
        <time>2015-05-27T09:44:16Z</time>
      </trkpt>
      <trkpt lat="42.82962" lon="-0.1415">
        <ele>1741.0849609375</ele>
        <time>2015-05-27T09:43:10Z</time>
      </trkpt>
      <trkpt lat="42.82992" lon="-0.14165">
        <ele>1741.5656738281</ele>
        <time>2015-05-27T09:42:32Z</time>
      </trkpt>
      <trkpt lat="42.83019" lon="-0.14174">
        <ele>1743.48828125</ele>
        <time>2015-05-27T09:42:12Z</time>
      </trkpt>
      <trkpt lat="42.83053" lon="-0.14187">
        <ele>1742.0463867188</ele>
        <time>2015-05-27T09:41:36Z</time>
      </trkpt>
      <trkpt lat="42.83086" lon="-0.14186">
        <ele>1742.0463867188</ele>
        <time>2015-05-27T09:41:06Z</time>
      </trkpt>
      <trkpt lat="42.83117" lon="-0.14186">
        <ele>1743.48828125</ele>
        <time>2015-05-27T09:40:32Z</time>
      </trkpt>
      <trkpt lat="42.83159" lon="-0.14172">
        <ele>1743.9689941406</ele>
        <time>2015-05-27T09:39:07Z</time>
      </trkpt>
      <trkpt lat="42.8319" lon="-0.14158">
        <ele>1743.0075683594</ele>
        <time>2015-05-27T09:38:34Z</time>
      </trkpt>
      <trkpt lat="42.83224" lon="-0.14163">
        <ele>1740.1237792969</ele>
        <time>2015-05-27T09:37:40Z</time>
      </trkpt>
      <trkpt lat="42.83259" lon="-0.14173">
        <ele>1739.162109375</ele>
        <time>2015-05-27T09:37:04Z</time>
      </trkpt>
      <trkpt lat="42.83311" lon="-0.1417">
        <ele>1737.7202148438</ele>
        <time>2015-05-27T09:35:46Z</time>
      </trkpt>
      <trkpt lat="42.83338" lon="-0.14179">
        <ele>1738.2009277344</ele>
        <time>2015-05-27T09:35:13Z</time>
      </trkpt>
      <trkpt lat="42.83385" lon="-0.14183">
        <ele>1738.2009277344</ele>
        <time>2015-05-27T09:34:23Z</time>
      </trkpt>
      <trkpt lat="42.83416" lon="-0.14165">
        <ele>1739.162109375</ele>
        <time>2015-05-27T09:33:43Z</time>
      </trkpt>
      <trkpt lat="42.83449" lon="-0.14156">
        <ele>1739.6428222656</ele>
        <time>2015-05-27T09:33:09Z</time>
      </trkpt>
      <trkpt lat="42.83476" lon="-0.14137">
        <ele>1739.6428222656</ele>
        <time>2015-05-27T09:32:43Z</time>
      </trkpt>
      <trkpt lat="42.83505" lon="-0.14104">
        <ele>1737.7202148438</ele>
        <time>2015-05-27T09:32:05Z</time>
      </trkpt>
      <trkpt lat="42.83516" lon="-0.14068">
        <ele>1736.7587890625</ele>
        <time>2015-05-27T09:31:40Z</time>
      </trkpt>
      <trkpt lat="42.83514" lon="-0.14035">
        <ele>1735.7976074219</ele>
        <time>2015-05-27T09:30:52Z</time>
      </trkpt>
      <trkpt lat="42.83503" lon="-0.14009">
        <ele>1738.2009277344</ele>
        <time>2015-05-27T09:30:24Z</time>
      </trkpt>
      <trkpt lat="42.8348" lon="-0.13983">
        <ele>1741.0849609375</ele>
        <time>2015-05-27T09:30:01Z</time>
      </trkpt>
      <trkpt lat="42.83476" lon="-0.13959">
        <ele>1739.6428222656</ele>
        <time>2015-05-27T09:29:16Z</time>
      </trkpt>
      <trkpt lat="42.83468" lon="-0.13917">
        <ele>1740.1237792969</ele>
        <time>2015-05-27T09:28:17Z</time>
      </trkpt>
      <trkpt lat="42.83501" lon="-0.13895">
        <ele>1735.7976074219</ele>
        <time>2015-05-27T09:27:37Z</time>
      </trkpt>
      <trkpt lat="42.83527" lon="-0.13878">
        <ele>1734.8364257812</ele>
        <time>2015-05-27T09:27:03Z</time>
      </trkpt>
      <trkpt lat="42.83565" lon="-0.13869">
        <ele>1734.3557128906</ele>
        <time>2015-05-27T09:26:27Z</time>
      </trkpt>
      <trkpt lat="42.836" lon="-0.1387">
        <ele>1732.9135742188</ele>
        <time>2015-05-27T09:25:28Z</time>
      </trkpt>
      <trkpt lat="42.83634" lon="-0.13851">
        <ele>1731.4716796875</ele>
        <time>2015-05-27T09:24:42Z</time>
      </trkpt>
      <trkpt lat="42.83673" lon="-0.13836">
        <ele>1728.1071777344</ele>
        <time>2015-05-27T09:23:49Z</time>
      </trkpt>
      <trkpt lat="42.83711" lon="-0.13836">
        <ele>1726.1845703125</ele>
        <time>2015-05-27T09:22:44Z</time>
      </trkpt>
      <trkpt lat="42.83747" lon="-0.13835">
        <ele>1722.3391113281</ele>
        <time>2015-05-27T09:21:54Z</time>
      </trkpt>
      <trkpt lat="42.83786" lon="-0.13845">
        <ele>1717.0520019531</ele>
        <time>2015-05-27T09:20:52Z</time>
      </trkpt>
      <trkpt lat="42.83815" lon="-0.13865">
        <ele>1715.6101074219</ele>
        <time>2015-05-27T09:20:07Z</time>
      </trkpt>
      <trkpt lat="42.83853" lon="-0.13877">
        <ele>1710.3227539062</ele>
        <time>2015-05-27T09:19:18Z</time>
      </trkpt>
      <trkpt lat="42.83883" lon="-0.13887">
        <ele>1705.0354003906</ele>
        <time>2015-05-27T09:18:15Z</time>
      </trkpt>
      <trkpt lat="42.83924" lon="-0.13881">
        <ele>1704.07421875</ele>
        <time>2015-05-27T09:17:33Z</time>
      </trkpt>
      <trkpt lat="42.83951" lon="-0.13871">
        <ele>1705.0354003906</ele>
        <time>2015-05-27T09:16:46Z</time>
      </trkpt>
      <trkpt lat="42.83981" lon="-0.13866">
        <ele>1699.7482910156</ele>
        <time>2015-05-27T09:16:00Z</time>
      </trkpt>
      <trkpt lat="42.84021" lon="-0.13852">
        <ele>1700.2290039062</ele>
        <time>2015-05-27T09:15:13Z</time>
      </trkpt>
      <trkpt lat="42.84052" lon="-0.13847">
        <ele>1708.4001464844</ele>
        <time>2015-05-27T09:14:26Z</time>
      </trkpt>
      <trkpt lat="42.84088" lon="-0.13853">
        <ele>1711.2841796875</ele>
        <time>2015-05-27T09:13:13Z</time>
      </trkpt>
      <trkpt lat="42.84114" lon="-0.13878">
        <ele>1701.6708984375</ele>
        <time>2015-05-27T09:12:07Z</time>
      </trkpt>
      <trkpt lat="42.84137" lon="-0.13898">
        <ele>1696.8642578125</ele>
        <time>2015-05-27T09:11:17Z</time>
      </trkpt>
      <trkpt lat="42.84169" lon="-0.13906">
        <ele>1694.9416503906</ele>
        <time>2015-05-27T09:10:26Z</time>
      </trkpt>
      <trkpt lat="42.84202" lon="-0.13924">
        <ele>1693.98046875</ele>
        <time>2015-05-27T09:09:41Z</time>
      </trkpt>
      <trkpt lat="42.84229" lon="-0.13914">
        <ele>1691.0961914062</ele>
        <time>2015-05-27T09:08:56Z</time>
      </trkpt>
      <trkpt lat="42.8426" lon="-0.13912">
        <ele>1691.5769042969</ele>
        <time>2015-05-27T09:08:23Z</time>
      </trkpt>
      <trkpt lat="42.84269" lon="-0.1388">
        <ele>1690.1350097656</ele>
        <time>2015-05-27T09:07:32Z</time>
      </trkpt>
      <trkpt lat="42.843" lon="-0.13885">
        <ele>1684.8479003906</ele>
        <time>2015-05-27T09:06:49Z</time>
      </trkpt>
      <trkpt lat="42.84329" lon="-0.13884">
        <ele>1683.4057617188</ele>
        <time>2015-05-27T09:06:12Z</time>
      </trkpt>
      <trkpt lat="42.84365" lon="-0.13882">
        <ele>1682.9250488281</ele>
        <time>2015-05-27T09:05:26Z</time>
      </trkpt>
      <trkpt lat="42.84398" lon="-0.13883">
        <ele>1678.1186523438</ele>
        <time>2015-05-27T09:04:39Z</time>
      </trkpt>
      <trkpt lat="42.84428" lon="-0.13886">
        <ele>1673.3120117188</ele>
        <time>2015-05-27T09:03:40Z</time>
      </trkpt>
      <trkpt lat="42.84454" lon="-0.13894">
        <ele>1667.0634765625</ele>
        <time>2015-05-27T09:02:54Z</time>
      </trkpt>
      <trkpt lat="42.84481" lon="-0.13898">
        <ele>1662.2568359375</ele>
        <time>2015-05-27T09:02:10Z</time>
      </trkpt>
      <trkpt lat="42.84511" lon="-0.13898">
        <ele>1659.3728027344</ele>
        <time>2015-05-27T09:01:29Z</time>
      </trkpt>
      <trkpt lat="42.84546" lon="-0.13889">
        <ele>1657.9309082031</ele>
        <time>2015-05-27T09:00:51Z</time>
      </trkpt>
      <trkpt lat="42.84577" lon="-0.13871">
        <ele>1657.9309082031</ele>
        <time>2015-05-27T09:00:16Z</time>
      </trkpt>
      <trkpt lat="42.84608" lon="-0.13875">
        <ele>1644.953125</ele>
        <time>2015-05-27T08:58:21Z</time>
      </trkpt>
      <trkpt lat="42.84653" lon="-0.13872">
        <ele>1640.626953125</ele>
        <time>2015-05-27T08:57:31Z</time>
      </trkpt>
      <trkpt lat="42.84671" lon="-0.13858">
        <ele>1631.0141601562</ele>
        <time>2015-05-27T08:56:12Z</time>
      </trkpt>
      <trkpt lat="42.84694" lon="-0.13863">
        <ele>1618.9975585938</ele>
        <time>2015-05-27T08:54:53Z</time>
      </trkpt>
      <trkpt lat="42.84724" lon="-0.13858">
        <ele>1615.6330566406</ele>
        <time>2015-05-27T08:54:14Z</time>
      </trkpt>
      <trkpt lat="42.8475" lon="-0.13846">
        <ele>1614.6716308594</ele>
        <time>2015-05-27T08:53:42Z</time>
      </trkpt>
      <trkpt lat="42.84778" lon="-0.13849">
        <ele>1611.7875976562</ele>
        <time>2015-05-27T08:53:03Z</time>
      </trkpt>
      <trkpt lat="42.84809" lon="-0.13852">
        <ele>1607.4616699219</ele>
        <time>2015-05-27T08:51:59Z</time>
      </trkpt>
      <trkpt lat="42.84837" lon="-0.13863">
        <ele>1598.8098144531</ele>
        <time>2015-05-27T08:50:55Z</time>
      </trkpt>
      <trkpt lat="42.84866" lon="-0.13875">
        <ele>1591.119140625</ele>
        <time>2015-05-27T08:49:56Z</time>
      </trkpt>
      <trkpt lat="42.84896" lon="-0.13881">
        <ele>1583.4287109375</ele>
        <time>2015-05-27T08:49:16Z</time>
      </trkpt>
      <trkpt lat="42.84906" lon="-0.13876">
        <ele>1581.5061035156</ele>
        <time>2015-05-27T08:47:46Z</time>
      </trkpt>
      <trkpt lat="42.84924" lon="-0.13869">
        <ele>1571.412109375</ele>
        <time>2015-05-27T08:45:48Z</time>
      </trkpt>
      <trkpt lat="42.84952" lon="-0.13848">
        <ele>1559.8762207031</ele>
        <time>2015-05-27T08:44:39Z</time>
      </trkpt>
      <trkpt lat="42.8498" lon="-0.13841">
        <ele>1549.7827148438</ele>
        <time>2015-05-27T08:43:08Z</time>
      </trkpt>
      <trkpt lat="42.85" lon="-0.13875">
        <ele>1542.0920410156</ele>
        <time>2015-05-27T08:42:07Z</time>
      </trkpt>
      <trkpt lat="42.85026" lon="-0.13862">
        <ele>1537.7661132812</ele>
        <time>2015-05-27T08:41:27Z</time>
      </trkpt>
      <trkpt lat="42.85021" lon="-0.13854">
        <ele>1530.0754394531</ele>
        <time>2015-05-27T08:40:28Z</time>
      </trkpt>
      <trkpt lat="42.8502" lon="-0.13894">
        <ele>1524.7883300781</ele>
        <time>2015-05-27T08:39:40Z</time>
      </trkpt>
      <trkpt lat="42.85036" lon="-0.13913">
        <ele>1519.5012207031</ele>
        <time>2015-05-27T08:38:50Z</time>
      </trkpt>
      <trkpt lat="42.85044" lon="-0.13898">
        <ele>1509.4072265625</ele>
        <time>2015-05-27T08:37:23Z</time>
      </trkpt>
      <trkpt lat="42.85069" lon="-0.13888">
        <ele>1501.716796875</ele>
        <time>2015-05-27T08:36:38Z</time>
      </trkpt>
      <trkpt lat="42.85082" lon="-0.1389">
        <ele>1497.390625</ele>
        <time>2015-05-27T08:36:02Z</time>
      </trkpt>
      <trkpt lat="42.851" lon="-0.13856">
        <ele>1494.5065917969</ele>
        <time>2015-05-27T08:35:34Z</time>
      </trkpt>
      <trkpt lat="42.85086" lon="-0.13821">
        <ele>1489.7001953125</ele>
        <time>2015-05-27T08:34:49Z</time>
      </trkpt>
      <trkpt lat="42.85099" lon="-0.13829">
        <ele>1484.8937988281</ele>
        <time>2015-05-27T08:34:07Z</time>
      </trkpt>
      <trkpt lat="42.85121" lon="-0.13847">
        <ele>1481.5288085938</ele>
        <time>2015-05-27T08:33:40Z</time>
      </trkpt>
      <trkpt lat="42.85139" lon="-0.13815">
        <ele>1477.203125</ele>
        <time>2015-05-27T08:33:05Z</time>
      </trkpt>
      <trkpt lat="42.85152" lon="-0.13766">
        <ele>1473.8383789062</ele>
        <time>2015-05-27T08:32:22Z</time>
      </trkpt>
      <trkpt lat="42.8516" lon="-0.13732">
        <ele>1471.4350585938</ele>
        <time>2015-05-27T08:31:15Z</time>
      </trkpt>
      <trkpt lat="42.85168" lon="-0.13695">
        <ele>1469.9931640625</ele>
        <time>2015-05-27T08:30:01Z</time>
      </trkpt>
      <trkpt lat="42.8518" lon="-0.13663">
        <ele>1467.5895996094</ele>
        <time>2015-05-27T08:29:12Z</time>
      </trkpt>
      <trkpt lat="42.85177" lon="-0.13625">
        <ele>1466.6284179688</ele>
        <time>2015-05-27T08:28:12Z</time>
      </trkpt>
      <trkpt lat="42.8516" lon="-0.13605">
        <ele>1464.7058105469</ele>
        <time>2015-05-27T08:22:13Z</time>
      </trkpt>
    </trkseg>
  </trk>
</gpx>